DL4681 / N8903A 7700 Squawk Report (21st of May, 2022)

Aircraft CRJ2 Reg No. N8903A Age N/A
Model Regional-Jet Jet engines 2 First flight 01-04
Registered 25-03-21 Rollout 01-04 Delivered 30-01-04
Construction No. 7903 Line No. N/A Series 200LR
ADSHEX AC4816 Airline name Delta Connection Owner Endeavor Air
Airfield based Minneapolis-St.Paul Int'l~MN~N First tracked N/A

Flight history for N8903A

Route Flight No Date Playback
Southwest Georgia Regional Airport (ABY) - Hartsfield Jackson Atlanta Intl (ATL) DL5480 2022-06-28 13:08:00
Hartsfield Jackson Atlanta Intl (ATL) - Southwest Georgia Regional Airport (ABY) DL5337 2022-06-27 23:59:00
Southwest Georgia Regional Airport (ABY) - Hartsfield Jackson Atlanta Intl (ATL) DL4822 2022-06-27 22:15:00
Alexandria Intl (AEX) - Hartsfield Jackson Atlanta Intl (ATL) DL5371 2022-06-27 18:32:00
Brunswick Golden Isles Airport (BQK) - Hartsfield Jackson Atlanta Intl (ATL) DL4688 2022-06-27 13:54:00
Hartsfield Jackson Atlanta Intl (ATL) - Brunswick Golden Isles Airport (BQK) DL5156 2022-06-27 00:48:00
Alexandria Intl (AEX) - Hartsfield Jackson Atlanta Intl (ATL) DL4898 2022-06-26 23:23:00
Golden Triangle Regional Airport (GTR) - Hartsfield Jackson Atlanta Intl (ATL) DL4972 2022-06-26 18:39:00
Hartsfield Jackson Atlanta Intl (ATL) - Albert J Ellis (OAJ) - Hartsfield Jackson Atlanta Intl (ATL) DL5044 2022-06-26 13:42:00
Hartsfield Jackson Atlanta Intl (ATL) - Albert J Ellis (OAJ) - Hartsfield Jackson Atlanta Intl (ATL) DL5044 2022-06-25 21:08:00
Montgomery Regional Airport (MGM) - Hartsfield Jackson Atlanta Intl (ATL) DL5531 2022-06-25 15:09:00
Valdosta Regional Airport (VLD) - Hartsfield Jackson Atlanta Intl (ATL) DL4887 2022-06-25 11:15:00
Hartsfield Jackson Atlanta Intl (ATL) - Valdosta Regional Airport (VLD) DL4685 2022-06-25 01:50:00
Lafayette Rgnl (LFT) - Hartsfield Jackson Atlanta Intl (ATL) DL5005 2022-06-24 23:15:00
Fayetteville Regional Grannis Field (FAY) - Hartsfield Jackson Atlanta Intl (ATL) DL5395 2022-06-24 16:56:00
Southwest Georgia Regional Airport (ABY) - Hartsfield Jackson Atlanta Intl (ATL) DL5480 2022-06-24 13:11:00
Hartsfield Jackson Atlanta Intl (ATL) - Southwest Georgia Regional Airport (ABY) DL5337 2022-06-23 23:54:00
Shreveport Rgnl (SHV) - Hartsfield Jackson Atlanta Intl (ATL) DL5280 2022-06-23 22:23:00
Yeager (CRW) - Hartsfield Jackson Atlanta Intl (ATL) DL5145 2022-06-23 17:48:00
Hartsfield Jackson Atlanta Intl (ATL) - Lafayette Rgnl (LFT) - Hartsfield Jackson Atlanta Intl (ATL) DL5005 2022-06-23 12:15:00
Time Lat Lon Altitude Heading Speed Vertical Rate
2022-05-21 03:20:17 GMT 44.880920 -93.197731 0 191 1 0
2022-05-21 03:20:12 GMT 44.880901 -93.197739 0 191 0 0
2022-05-21 03:20:11 GMT 44.880901 -93.197731 0 191 0 0
2022-05-21 03:20:08 GMT 44.880901 -93.197739 0 191 0 0
2022-05-21 03:20:05 GMT 44.880890 -93.197739 0 191 0 0
2022-05-21 03:20:03 GMT 44.880852 -93.197746 0 191 3 0
2022-05-21 03:19:59 GMT 44.880852 -93.197762 0 192 4 0
2022-05-21 03:19:57 GMT 44.880852 -93.197762 0 193 5 0
2022-05-21 03:19:56 GMT 44.880859 -93.197762 0 193 5 0
2022-05-21 03:19:54 GMT 44.880901 -93.197762 0 194 5 0
2022-05-21 03:19:53 GMT 44.880932 -93.197746 0 194 5 0
2022-05-21 03:19:52 GMT 44.880970 -93.197739 0 193 5 0
2022-05-21 03:19:51 GMT 44.881020 -93.197723 0 189 4 0
2022-05-21 03:19:49 GMT 44.881031 -93.197708 0 186 4 0
2022-05-21 03:19:48 GMT 44.881039 -93.197708 0 183 5 0
2022-05-21 03:19:47 GMT 44.881069 -93.197670 0 175 5 0
2022-05-21 03:19:45 GMT 44.881100 -93.197639 0 171 5 0
2022-05-21 03:19:44 GMT 44.881130 -93.197617 0 168 5 0
2022-05-21 03:19:42 GMT 44.881168 -93.197609 0 164 5 0
2022-05-21 03:19:41 GMT 44.881191 -93.197609 0 162 5 0
2022-05-21 03:19:40 GMT 44.881222 -93.197617 0 161 5 0
2022-05-21 03:19:38 GMT 44.881260 -93.197632 0 158 5 0
2022-05-21 03:19:37 GMT 44.881279 -93.197632 0 156 5 0
2022-05-21 03:19:36 GMT 44.881310 -93.197639 0 154 5 0
2022-05-21 03:19:35 GMT 44.881371 -93.197662 0 149 4 0
2022-05-21 03:19:33 GMT 44.881390 -93.197670 0 145 4 0
2022-05-21 03:19:32 GMT 44.881420 -93.197670 0 141 4 0
2022-05-21 03:19:30 GMT 44.881439 -93.197670 0 137 5 0
2022-05-21 03:19:29 GMT 44.881451 -93.197662 0 134 5 0
2022-05-21 03:19:28 GMT 44.881470 -93.197670 0 131 5 0
2022-05-21 03:19:26 GMT 44.881512 -93.197670 0 124 6 0
2022-05-21 03:19:25 GMT 44.881531 -93.197678 0 123 7 0
2022-05-21 03:19:24 GMT 44.881569 -93.197708 0 121 8 0
2022-05-21 03:19:22 GMT 44.881580 -93.197731 0 121 9 0
2022-05-21 03:19:21 GMT 44.881599 -93.197769 0 121 9 0
2022-05-21 03:19:19 GMT 44.881630 -93.197853 0 121 10 0
2022-05-21 03:19:18 GMT 44.881649 -93.197891 0 121 11 0
2022-05-21 03:19:17 GMT 44.881672 -93.197929 0 121 12 0
2022-05-21 03:19:16 GMT 44.881699 -93.198029 0 122 14 0
2022-05-21 03:19:14 GMT 44.881729 -93.198097 0 122 15 0
2022-05-21 03:19:13 GMT 44.881760 -93.198158 0 122 16 0
2022-05-21 03:19:12 GMT 44.881840 -93.198318 0 121 16 0
2022-05-21 03:19:10 GMT 44.881889 -93.198433 0 121 15 0
2022-05-21 03:19:09 GMT 44.881931 -93.198517 0 121 15 0
2022-05-21 03:19:08 GMT 44.881969 -93.198601 0 120 15 0
2022-05-21 03:19:07 GMT 44.882000 -93.198692 0 120 15 0
2022-05-21 03:19:05 GMT 44.882080 -93.198868 0 120 14 0
2022-05-21 03:19:04 GMT 44.882111 -93.198936 0 120 14 0
2022-05-21 03:19:03 GMT 44.882172 -93.199081 0 121 15 0
2022-05-21 03:19:01 GMT 44.882198 -93.199158 0 121 15 0
2022-05-21 03:19:00 GMT 44.882240 -93.199249 0 121 15 0
2022-05-21 03:18:59 GMT 44.882301 -93.199402 0 122 16 0
2022-05-21 03:18:57 GMT 44.882339 -93.199493 0 121 16 0
2022-05-21 03:18:56 GMT 44.882370 -93.199562 0 121 17 0
2022-05-21 03:18:55 GMT 44.882420 -93.199638 0 120 17 0
2022-05-21 03:18:53 GMT 44.882488 -93.199806 0 120 18 0
2022-05-21 03:18:52 GMT 44.882530 -93.199898 0 121 19 0
2022-05-21 03:18:51 GMT 44.882568 -93.200020 0 121 19 0
2022-05-21 03:18:49 GMT 44.882660 -93.200218 0 121 19 0
2022-05-21 03:18:48 GMT 44.882740 -93.200417 0 121 20 0
2022-05-21 03:18:46 GMT 44.882790 -93.200523 0 121 20 0
2022-05-21 03:18:45 GMT 44.882839 -93.200623 0 121 20 0
2022-05-21 03:18:44 GMT 44.882881 -93.200722 0 121 20 0
2022-05-21 03:18:42 GMT 44.882992 -93.200951 0 120 20 0
2022-05-21 03:18:41 GMT 44.883041 -93.201073 0 120 20 0
2022-05-21 03:18:40 GMT 44.883072 -93.201172 0 121 21 0
2022-05-21 03:18:38 GMT 44.883171 -93.201408 0 122 20 0
2022-05-21 03:18:37 GMT 44.883221 -93.201523 0 122 20 0
2022-05-21 03:18:36 GMT 44.883270 -93.201622 0 121 21 0
2022-05-21 03:18:34 GMT 44.883369 -93.201851 0 122 21 0
2022-05-21 03:18:33 GMT 44.883419 -93.201958 0 121 21 0
2022-05-21 03:18:32 GMT 44.883469 -93.202080 0 121 21 0
2022-05-21 03:18:31 GMT 44.883518 -93.202202 0 121 21 0
2022-05-21 03:18:29 GMT 44.883629 -93.202431 0 121 21 0
2022-05-21 03:18:28 GMT 44.883678 -93.202530 0 120 21 0
2022-05-21 03:18:27 GMT 44.883732 -93.202660 0 120 21 0
2022-05-21 03:18:26 GMT 44.883831 -93.202888 0 121 20 0
2022-05-21 03:18:24 GMT 44.883869 -93.203003 0 121 21 0
2022-05-21 03:18:23 GMT 44.883919 -93.203110 0 121 21 0
2022-05-21 03:18:22 GMT 44.884022 -93.203331 0 121 22 0
2022-05-21 03:18:20 GMT 44.884071 -93.203461 0 121 22 0
2022-05-21 03:18:19 GMT 44.884121 -93.203568 0 121 22 0
2022-05-21 03:18:18 GMT 44.884220 -93.203819 0 122 22 0
2022-05-21 03:18:16 GMT 44.884281 -93.203941 0 121 22 0
2022-05-21 03:18:15 GMT 44.884331 -93.204048 0 121 22 0
2022-05-21 03:18:14 GMT 44.884380 -93.204170 0 121 22 0
2022-05-21 03:18:12 GMT 44.884499 -93.204407 0 121 22 0
2022-05-21 03:18:11 GMT 44.884548 -93.204552 0 121 22 0
2022-05-21 03:18:10 GMT 44.884602 -93.204659 0 121 22 0
2022-05-21 03:18:08 GMT 44.884708 -93.204910 0 121 22 0
2022-05-21 03:18:07 GMT 44.884750 -93.205040 0 122 22 0
2022-05-21 03:18:05 GMT 44.884930 -93.205406 0 121 22 0
2022-05-21 03:18:03 GMT 44.884979 -93.205513 0 121 22 0
2022-05-21 03:18:02 GMT 44.885029 -93.205620 0 121 23 0
2022-05-21 03:18:01 GMT 44.885078 -93.205742 0 121 23 0
2022-05-21 03:17:59 GMT 44.885201 -93.206017 0 120 23 0
2022-05-21 03:17:58 GMT 44.885262 -93.206139 0 120 23 0
2022-05-21 03:17:56 GMT 44.885368 -93.206421 0 121 22 0
2022-05-21 03:17:55 GMT 44.885422 -93.206543 0 121 22 0
2022-05-21 03:17:54 GMT 44.885471 -93.206657 0 121 22 0
2022-05-21 03:17:52 GMT 44.885578 -93.206909 0 121 22 0
2022-05-21 03:17:51 GMT 44.885632 -93.207031 0 121 22 0
2022-05-21 03:17:49 GMT 44.885738 -93.207283 0 121 22 0
2022-05-21 03:17:48 GMT 44.885799 -93.207397 0 121 21 0
2022-05-21 03:17:47 GMT 44.885849 -93.207527 0 121 21 0
2022-05-21 03:17:45 GMT 44.885960 -93.207787 0 121 19 0
2022-05-21 03:17:44 GMT 44.886021 -93.207901 0 121 19 0
2022-05-21 03:17:43 GMT 44.886051 -93.208000 0 122 20 0
2022-05-21 03:17:41 GMT 44.886150 -93.208199 0 120 20 0
2022-05-21 03:17:40 GMT 44.886200 -93.208321 0 121 20 0
2022-05-21 03:17:39 GMT 44.886250 -93.208443 0 121 20 0
2022-05-21 03:17:37 GMT 44.886349 -93.208656 0 120 20 0
2022-05-21 03:17:36 GMT 44.886391 -93.208778 0 121 20 0
2022-05-21 03:17:35 GMT 44.886440 -93.208900 0 121 19 0
2022-05-21 03:17:33 GMT 44.886551 -93.209129 0 121 19 0
2022-05-21 03:17:32 GMT 44.886600 -93.209244 0 120 18 0
2022-05-21 03:17:31 GMT 44.886639 -93.209343 0 121 18 0
2022-05-21 03:17:29 GMT 44.886730 -93.209549 0 121 18 0
2022-05-21 03:17:28 GMT 44.886768 -93.209648 0 121 18 0
2022-05-21 03:17:27 GMT 44.886841 -93.209808 0 121 19 0
2022-05-21 03:17:25 GMT 44.886890 -93.209908 0 121 20 0
2022-05-21 03:17:24 GMT 44.886929 -93.210022 0 121 20 0
2022-05-21 03:17:23 GMT 44.887039 -93.210251 0 120 19 0
2022-05-21 03:17:22 GMT 44.887070 -93.210320 0 120 20 0
2022-05-21 03:17:20 GMT 44.887131 -93.210457 0 120 19 0
2022-05-21 03:17:19 GMT 44.887169 -93.210571 0 121 19 0
2022-05-21 03:17:18 GMT 44.887230 -93.210709 0 121 18 0
2022-05-21 03:17:16 GMT 44.887321 -93.210930 0 122 17 0
2022-05-21 03:17:15 GMT 44.887360 -93.211029 0 122 17 0
2022-05-21 03:17:13 GMT 44.887459 -93.211243 0 122 15 0
2022-05-21 03:17:12 GMT 44.887501 -93.211319 0 121 15 0
2022-05-21 03:17:11 GMT 44.887539 -93.211403 0 121 15 0
2022-05-21 03:17:10 GMT 44.887581 -93.211548 0 124 18 0
2022-05-21 03:17:08 GMT 44.887630 -93.211639 0 124 18 0
2022-05-21 03:17:07 GMT 44.887661 -93.211708 0 123 19 0
2022-05-21 03:17:05 GMT 44.887760 -93.211937 0 120 15 0
2022-05-21 03:17:04 GMT 44.887791 -93.211998 0 114 15 0
2022-05-21 03:17:03 GMT 44.887829 -93.212082 0 104 14 0
2022-05-21 03:17:02 GMT 44.887871 -93.212173 0 80 12 0
2022-05-21 03:17:00 GMT 44.887939 -93.212349 0 57 9 0
2022-05-21 03:16:59 GMT 44.887939 -93.212433 0 53 9 0
2022-05-21 03:16:58 GMT 44.887951 -93.212479 0 50 9 0
2022-05-21 03:16:57 GMT 44.887932 -93.212570 0 46 11 0
2022-05-21 03:16:55 GMT 44.887909 -93.212631 0 45 12 0
2022-05-21 03:16:54 GMT 44.887871 -93.212692 0 45 11 0
2022-05-21 03:16:52 GMT 44.887810 -93.212769 0 44 13 0
2022-05-21 03:16:51 GMT 44.887779 -93.212837 0 44 13 0
2022-05-21 03:16:50 GMT 44.887691 -93.212936 0 45 13 0
2022-05-21 03:16:48 GMT 44.887642 -93.213013 0 45 13 0
2022-05-21 03:16:47 GMT 44.887611 -93.213058 0 46 14 0
2022-05-21 03:16:46 GMT 44.887562 -93.213112 0 46 14 0
2022-05-21 03:16:45 GMT 44.887482 -93.213249 0 45 14 0
2022-05-21 03:16:43 GMT 44.887440 -93.213310 0 44 15 0
2022-05-21 03:16:42 GMT 44.887402 -93.213364 0 44 15 0
2022-05-21 03:16:41 GMT 44.887360 -93.213432 0 43 16 0
2022-05-21 03:16:39 GMT 44.887260 -93.213562 0 44 16 0
2022-05-21 03:16:38 GMT 44.887211 -93.213638 0 43 16 0
2022-05-21 03:16:37 GMT 44.887150 -93.213722 0 43 16 0
2022-05-21 03:16:35 GMT 44.887051 -93.213867 0 43 16 0
2022-05-21 03:16:34 GMT 44.886990 -93.213943 0 43 16 0
2022-05-21 03:16:33 GMT 44.886951 -93.213982 0 44 17 0
2022-05-21 03:16:31 GMT 44.886841 -93.214119 0 45 18 0
2022-05-21 03:16:30 GMT 44.886799 -93.214188 0 44 18 0
2022-05-21 03:16:29 GMT 44.886742 -93.214272 0 45 19 0
2022-05-21 03:16:27 GMT 44.886631 -93.214439 0 44 19 0
2022-05-21 03:16:26 GMT 44.886570 -93.214523 0 44 19 0
2022-05-21 03:16:25 GMT 44.886509 -93.214607 0 43 19 0
2022-05-21 03:16:24 GMT 44.886379 -93.214783 0 44 20 0
2022-05-21 03:16:22 GMT 44.886318 -93.214867 0 44 19 0
2022-05-21 03:16:21 GMT 44.886238 -93.214951 0 45 19 0
2022-05-21 03:16:19 GMT 44.886120 -93.215149 0 44 19 0
2022-05-21 03:16:18 GMT 44.886051 -93.215233 0 44 19 0
2022-05-21 03:16:17 GMT 44.885979 -93.215317 0 45 18 0
2022-05-21 03:16:16 GMT 44.885910 -93.215408 0 46 18 0
2022-05-21 03:16:15 GMT 44.885792 -93.215584 0 47 17 0
2022-05-21 03:16:13 GMT 44.885738 -93.215660 0 47 18 0
2022-05-21 03:16:12 GMT 44.885681 -93.215752 0 47 17 0
2022-05-21 03:16:10 GMT 44.885571 -93.215927 0 46 17 0
2022-05-21 03:16:09 GMT 44.885521 -93.216011 0 46 17 0
2022-05-21 03:16:08 GMT 44.885460 -93.216080 0 47 16 0
2022-05-21 03:16:07 GMT 44.885422 -93.216164 0 47 16 0
2022-05-21 03:16:06 GMT 44.885330 -93.216316 0 47 16 0
2022-05-21 03:16:04 GMT 44.885288 -93.216393 0 47 16 0
2022-05-21 03:16:03 GMT 44.885239 -93.216469 0 47 16 0
2022-05-21 03:16:01 GMT 44.885139 -93.216637 0 43 15 0
2022-05-21 03:16:00 GMT 44.885090 -93.216690 0 44 17 0
2022-05-21 03:15:59 GMT 44.885040 -93.216789 0 38 15 0
2022-05-21 03:15:57 GMT 44.884941 -93.216888 0 49 17 0
2022-05-21 03:15:56 GMT 44.884892 -93.216972 0 49 18 0
2022-05-21 03:15:55 GMT 44.884838 -93.217087 0 41 16 0
2022-05-21 03:15:53 GMT 44.884720 -93.217216 0 43 14 0
2022-05-21 03:15:52 GMT 44.884682 -93.217270 0 46 15 0
2022-05-21 03:15:51 GMT 44.884590 -93.217422 0 44 15 0
2022-05-21 03:15:49 GMT 44.884541 -93.217491 0 43 15 0
2022-05-21 03:15:48 GMT 44.884499 -93.217567 0 36 14 0
2022-05-21 03:15:47 GMT 44.884399 -93.217682 0 41 15 0
2022-05-21 03:15:45 GMT 44.884338 -93.217743 0 45 13 0
2022-05-21 03:15:44 GMT 44.884281 -93.217812 0 47 12 0
2022-05-21 03:15:42 GMT 44.884209 -93.217911 0 48 13 0
2022-05-21 03:15:40 GMT 44.884140 -93.218040 0 41 14 0
2022-05-21 03:15:39 GMT 44.884079 -93.218102 0 44 13 0
2022-05-21 03:15:37 GMT 44.883991 -93.218208 0 43 13 0
2022-05-21 03:15:36 GMT 44.883961 -93.218292 0 39 13 0
2022-05-21 03:15:34 GMT 44.883808 -93.218452 0 46 9 0
2022-05-21 03:15:32 GMT 44.883789 -93.218491 0 45 10 0
2022-05-21 03:15:31 GMT 44.883759 -93.218529 0 46 10 0
2022-05-21 03:15:29 GMT 44.883690 -93.218620 0 48 10 0
2022-05-21 03:15:28 GMT 44.883659 -93.218681 0 47 9 0
2022-05-21 03:15:27 GMT 44.883610 -93.218758 0 45 9 0
2022-05-21 03:15:25 GMT 44.883572 -93.218811 0 40 8 0
2022-05-21 03:15:24 GMT 44.883549 -93.218857 0 37 8 0
2022-05-21 03:15:23 GMT 44.883530 -93.218887 0 37 9 0
2022-05-21 03:15:22 GMT 44.883499 -93.218918 0 38 9 0
2022-05-21 03:15:20 GMT 44.883411 -93.219002 0 42 5 0
2022-05-21 03:15:19 GMT 44.883400 -93.219009 0 41 6 0
2022-05-21 03:15:18 GMT 44.883400 -93.219032 0 36 9 0
2022-05-21 03:15:17 GMT 44.883320 -93.219093 0 53 7 0
2022-05-21 03:15:15 GMT 44.883282 -93.219139 0 49 4 0
2022-05-21 03:15:14 GMT 44.883270 -93.219193 0 40 3 0
2022-05-21 03:15:12 GMT 44.883251 -93.219193 0 50 5 0
2022-05-21 03:15:11 GMT 44.883240 -93.219193 0 50 6 0
2022-05-21 03:15:10 GMT 44.883221 -93.219238 0 44 4 0
2022-05-21 03:15:08 GMT 44.883179 -93.219261 0 58 3 0
2022-05-21 03:15:07 GMT 44.883171 -93.219307 0 66 2 0
2022-05-21 03:15:06 GMT 44.883160 -93.219330 0 67 2 0
2022-05-21 03:15:04 GMT 44.883141 -93.219337 0 68 2 0
2022-05-21 03:15:03 GMT 44.883110 -93.219353 0 68 0 0
2022-05-21 03:15:02 GMT 44.883129 -93.219368 0 68 2 0
2022-05-21 03:15:01 GMT 44.883099 -93.219353 0 68 0 0
2022-05-21 03:14:58 GMT 44.883099 -93.219360 0 68 0 0
2022-05-21 03:14:56 GMT 44.883091 -93.219368 0 69 0 0
2022-05-21 03:14:55 GMT 44.883072 -93.219391 0 69 0 0
2022-05-21 03:14:53 GMT 44.883060 -93.219398 0 69 1 0
2022-05-21 03:14:52 GMT 44.883072 -93.219391 0 65 2 0
2022-05-21 03:14:51 GMT 44.883110 -93.219398 0 67 2 0
2022-05-21 03:14:50 GMT 44.883099 -93.219391 0 67 2 0
2022-05-21 03:14:49 GMT 44.883099 -93.219353 0 67 1 0
2022-05-21 03:14:47 GMT 44.883091 -93.219337 0 67 0 0
2022-05-21 03:14:45 GMT 44.883091 -93.219337 0 67 0 0
2022-05-21 03:14:42 GMT 44.883099 -93.219360 0 66 0 0
2022-05-21 03:14:41 GMT 44.883080 -93.219353 0 66 0 0
2022-05-21 03:14:40 GMT 44.883072 -93.219368 0 66 0 0
2022-05-21 03:14:39 GMT 44.883072 -93.219360 0 66 1 0
2022-05-21 03:14:38 GMT 44.883080 -93.219368 0 66 0 0
2022-05-21 03:14:36 GMT 44.883099 -93.219368 0 66 1 0
2022-05-21 03:14:35 GMT 44.883091 -93.219368 0 66 1 0
2022-05-21 03:14:34 GMT 44.883091 -93.219360 0 70 2 0
2022-05-21 03:14:32 GMT 44.883091 -93.219353 0 71 2 0
2022-05-21 03:14:31 GMT 44.883060 -93.219299 0 72 1 0
2022-05-21 03:14:30 GMT 44.883072 -93.219299 0 71 2 0
2022-05-21 03:14:28 GMT 44.883060 -93.219307 0 70 2 0
2022-05-21 03:14:27 GMT 44.883060 -93.219322 0 69 3 0
2022-05-21 03:14:25 GMT 44.883110 -93.219360 0 69 2 0
2022-05-21 03:14:23 GMT 44.883091 -93.219368 0 69 0 0
2022-05-21 03:14:22 GMT 44.883080 -93.219368 0 69 0 0
2022-05-21 03:14:20 GMT 44.883091 -93.219360 0 69 0 0
2022-05-21 03:14:16 GMT 44.883080 -93.219368 0 68 0 0
2022-05-21 03:14:12 GMT 44.883091 -93.219360 0 68 0 0
2022-05-21 03:14:09 GMT 44.883091 -93.219360 0 68 0 0
2022-05-21 03:14:04 GMT 44.883080 -93.219360 0 64 0 0
2022-05-21 03:14:02 GMT 44.883080 -93.219368 0 64 0 0
2022-05-21 03:13:59 GMT 44.883091 -93.219360 0 59 0 0
2022-05-21 03:13:57 GMT 44.883099 -93.219368 0 58 0 0
2022-05-21 03:13:56 GMT 44.883091 -93.219360 0 58 0 0
2022-05-21 03:13:54 GMT 44.883099 -93.219360 0 58 0 0
2022-05-21 03:13:52 GMT 44.883099 -93.219353 0 57 0 0
2022-05-21 03:13:50 GMT 44.883091 -93.219360 0 57 1 0
2022-05-21 03:13:49 GMT 44.883099 -93.219353 0 57 1 0
2022-05-21 03:13:47 GMT 44.883099 -93.219368 0 57 0 0
2022-05-21 03:13:46 GMT 44.883091 -93.219360 0 57 0 0
2022-05-21 03:13:44 GMT 44.883080 -93.219353 0 57 0 0
2022-05-21 03:13:43 GMT 44.883099 -93.219360 0 55 1 0
2022-05-21 03:13:40 GMT 44.883110 -93.219353 0 58 1 0
2022-05-21 03:13:38 GMT 44.883060 -93.219337 0 58 1 0
2022-05-21 03:13:37 GMT 44.883072 -93.219337 0 57 1 0
2022-05-21 03:13:36 GMT 44.883080 -93.219360 0 57 0 0
2022-05-21 03:13:35 GMT 44.883091 -93.219368 0 57 0 0
2022-05-21 03:13:34 GMT 44.883080 -93.219353 0 57 0 0
2022-05-21 03:13:32 GMT 44.883080 -93.219337 0 57 0 0
2022-05-21 03:13:30 GMT 44.883072 -93.219360 0 55 0 0
2022-05-21 03:13:28 GMT 44.883072 -93.219368 0 55 0 0
2022-05-21 03:13:27 GMT 44.883080 -93.219360 0 55 0 0
2022-05-21 03:13:24 GMT 44.883091 -93.219360 0 55 0 0
2022-05-21 03:13:22 GMT 44.883091 -93.219330 0 55 0 0
2022-05-21 03:13:21 GMT 44.883091 -93.219322 0 55 1 0
2022-05-21 03:13:20 GMT 44.883091 -93.219330 0 55 1 0
2022-05-21 03:13:19 GMT 44.883091 -93.219307 0 56 2 0
2022-05-21 03:13:17 GMT 44.883080 -93.219353 0 56 1 0
2022-05-21 03:13:15 GMT 44.883080 -93.219368 0 56 1 0
2022-05-21 03:13:13 GMT 44.883080 -93.219368 0 58 1 0
2022-05-21 03:13:12 GMT 44.883080 -93.219398 0 63 2 0
2022-05-21 03:13:10 GMT 44.883080 -93.219383 0 64 2 0
2022-05-21 03:13:09 GMT 44.883099 -93.219330 0 64 1 0
2022-05-21 03:13:08 GMT 44.883099 -93.219337 0 65 1 0
2022-05-21 03:13:07 GMT 44.883091 -93.219337 0 67 1 0
2022-05-21 03:13:05 GMT 44.883072 -93.219353 0 67 1 0
2022-05-21 03:13:04 GMT 44.883072 -93.219360 0 66 1 0
2022-05-21 03:13:02 GMT 44.883080 -93.219368 0 64 1 0
2022-05-21 03:13:01 GMT 44.883099 -93.219421 0 64 2 0
2022-05-21 03:13:00 GMT 44.883110 -93.219414 0 64 2 0
2022-05-21 03:12:59 GMT 44.883091 -93.219330 0 64 0 0
2022-05-21 03:12:57 GMT 44.883091 -93.219337 0 64 1 0
2022-05-21 03:12:56 GMT 44.883099 -93.219330 0 63 2 0
2022-05-21 03:12:55 GMT 44.883091 -93.219353 0 63 2 0
2022-05-21 03:12:53 GMT 44.883091 -93.219337 0 63 2 0
2022-05-21 03:12:52 GMT 44.883091 -93.219353 0 62 2 0
2022-05-21 03:12:51 GMT 44.883110 -93.219383 0 62 1 0
2022-05-21 03:12:49 GMT 44.883080 -93.219307 0 62 1 0
2022-05-21 03:12:48 GMT 44.883091 -93.219330 0 62 1 0
2022-05-21 03:12:47 GMT 44.883080 -93.219330 0 60 2 0
2022-05-21 03:12:45 GMT 44.883091 -93.219330 0 60 2 0
2022-05-21 03:12:44 GMT 44.883091 -93.219337 0 59 1 0
2022-05-21 03:12:42 GMT 44.883110 -93.219414 0 60 1 0
2022-05-21 03:12:39 GMT 44.883080 -93.219353 0 61 0 0
2022-05-21 03:12:37 GMT 44.883091 -93.219360 0 61 0 0
2022-05-21 03:12:36 GMT 44.883091 -93.219383 0 61 0 0
2022-05-21 03:12:34 GMT 44.883080 -93.219383 0 61 0 0
2022-05-21 03:12:33 GMT 44.883099 -93.219368 0 63 2 0
2022-05-21 03:12:32 GMT 44.883072 -93.219383 0 64 1 0
2022-05-21 03:12:29 GMT 44.883072 -93.219353 0 64 1 0
2022-05-21 03:12:27 GMT 44.883060 -93.219337 0 64 1 0
2022-05-21 03:12:26 GMT 44.883018 -93.219383 0 61 3 0
2022-05-21 03:12:25 GMT 44.883030 -93.219368 0 59 3 0
2022-05-21 03:12:24 GMT 44.883049 -93.219368 0 58 3 0
2022-05-21 03:12:22 GMT 44.883080 -93.219368 0 52 3 0
2022-05-21 03:12:21 GMT 44.883121 -93.219276 0 50 0 0
2022-05-21 03:12:20 GMT 44.883121 -93.219307 0 50 1 0
2022-05-21 03:12:18 GMT 44.883110 -93.219322 0 50 1 0
2022-05-21 03:12:17 GMT 44.883072 -93.219414 0 53 2 0
2022-05-21 03:12:16 GMT 44.883080 -93.219383 0 56 1 0
2022-05-21 03:12:14 GMT 44.883121 -93.219383 0 59 1 0
2022-05-21 03:12:13 GMT 44.883099 -93.219383 0 60 2 0
2022-05-21 03:12:12 GMT 44.883099 -93.219368 0 60 2 0
2022-05-21 03:12:10 GMT 44.883121 -93.219261 0 64 4 0
2022-05-21 03:12:09 GMT 44.883110 -93.219276 0 64 4 0
2022-05-21 03:12:08 GMT 44.883099 -93.219299 0 64 5 0
2022-05-21 03:12:05 GMT 44.883072 -93.219368 0 64 0 0
2022-05-21 03:12:03 GMT 44.883072 -93.219383 0 64 0 0
2022-05-21 03:12:01 GMT 44.883080 -93.219368 0 64 1 0
2022-05-21 03:12:00 GMT 44.883099 -93.219360 0 64 1 0
2022-05-21 03:11:58 GMT 44.883080 -93.219337 0 64 2 0
2022-05-21 03:11:57 GMT 44.883091 -93.219383 0 64 0 0
2022-05-21 03:11:56 GMT 44.883080 -93.219360 0 64 2 0
2022-05-21 03:11:54 GMT 44.883060 -93.219353 0 64 0 0
2022-05-21 03:11:53 GMT 44.883060 -93.219360 0 64 0 0
2022-05-21 03:11:52 GMT 44.883072 -93.219360 0 64 0 0
2022-05-21 03:11:49 GMT 44.883080 -93.219368 0 64 0 0
2022-05-21 03:11:47 GMT 44.883091 -93.219353 0 64 0 0
2022-05-21 03:11:45 GMT 44.883091 -93.219353 0 64 0 0
2022-05-21 03:11:42 GMT 44.883091 -93.219368 0 63 0 0
2022-05-21 03:11:41 GMT 44.883080 -93.219360 0 63 0 0
2022-05-21 03:11:38 GMT 44.883091 -93.219360 0 63 0 0
2022-05-21 03:11:36 GMT 44.883080 -93.219360 0 63 0 0
2022-05-21 03:11:35 GMT 44.883091 -93.219360 0 63 0 0
2022-05-21 03:11:34 GMT 44.883080 -93.219360 0 63 0 0
2022-05-21 03:11:32 GMT 44.883091 -93.219398 0 68 2 0
2022-05-21 03:11:31 GMT 44.883080 -93.219330 0 68 0 0
2022-05-21 03:11:30 GMT 44.883091 -93.219330 0 68 0 0
2022-05-21 03:11:28 GMT 44.883099 -93.219337 0 68 2 0
2022-05-21 03:11:25 GMT 44.883080 -93.219368 0 68 0 0
2022-05-21 03:11:23 GMT 44.883080 -93.219368 0 68 0 0
2022-05-21 03:11:21 GMT 44.883060 -93.219360 0 66 2 0
2022-05-21 03:11:20 GMT 44.883072 -93.219360 0 65 2 0
2022-05-21 03:11:19 GMT 44.883080 -93.219368 0 65 2 0
2022-05-21 03:11:18 GMT 44.883091 -93.219368 0 66 0 0
2022-05-21 03:11:16 GMT 44.883091 -93.219368 0 66 0 0
2022-05-21 03:11:13 GMT 44.883080 -93.219383 0 66 0 0
2022-05-21 03:11:10 GMT 44.883080 -93.219368 0 66 0 0
2022-05-21 03:11:08 GMT 44.883080 -93.219368 0 66 0 0
2022-05-21 03:11:07 GMT 44.883080 -93.219383 0 66 0 0
2022-05-21 03:11:06 GMT 44.883080 -93.219383 0 66 0 0
2022-05-21 03:11:03 GMT 44.883080 -93.219383 0 66 0 0
2022-05-21 03:11:02 GMT 44.883080 -93.219368 0 66 0 0
2022-05-21 03:10:58 GMT 44.883049 -93.219353 0 65 1 0
2022-05-21 03:10:55 GMT 44.883060 -93.219360 0 63 1 0
2022-05-21 03:10:54 GMT 44.883080 -93.219383 0 61 0 0
2022-05-21 03:10:51 GMT 44.883080 -93.219368 0 61 0 0
2022-05-21 03:10:49 GMT 44.883091 -93.219368 0 61 0 0
2022-05-21 03:10:48 GMT 44.883080 -93.219368 0 60 0 0
2022-05-21 03:10:47 GMT 44.883091 -93.219368 0 59 0 0
2022-05-21 03:10:46 GMT 44.883080 -93.219368 0 59 0 0
2022-05-21 03:10:42 GMT 44.883080 -93.219383 0 57 0 0
2022-05-21 03:10:33 GMT 44.883080 -93.219368 0 57 0 0
2022-05-21 03:10:31 GMT 44.883080 -93.219383 0 56 0 0
2022-05-21 03:10:30 GMT 44.883072 -93.219368 0 56 0 0
2022-05-21 03:10:26 GMT 44.883080 -93.219383 0 56 0 0
2022-05-21 03:10:23 GMT 44.883080 -93.219368 0 56 0 0
2022-05-21 03:10:22 GMT 44.883080 -93.219383 0 55 0 0
2022-05-21 03:10:20 GMT 44.883091 -93.219368 0 54 0 0
2022-05-21 03:10:18 GMT 44.883072 -93.219368 0 54 1 0
2022-05-21 03:10:15 GMT 44.883060 -93.219383 0 45 3 0
2022-05-21 03:10:14 GMT 44.883072 -93.219383 0 43 2 0
2022-05-21 03:10:12 GMT 44.883080 -93.219360 0 41 0 0
2022-05-21 03:10:11 GMT 44.883091 -93.219353 0 40 3 0
2022-05-21 03:10:10 GMT 44.883091 -93.219368 0 35 7 0
2022-05-21 03:10:08 GMT 44.883072 -93.219383 0 40 8 0
2022-05-21 03:10:07 GMT 44.883041 -93.219391 0 43 10 0
2022-05-21 03:10:06 GMT 44.883018 -93.219437 0 35 11 0
2022-05-21 03:10:05 GMT 44.882999 -93.219467 0 33 14 0
2022-05-21 03:10:03 GMT 44.882889 -93.219589 0 36 12 0
2022-05-21 03:10:02 GMT 44.882839 -93.219612 0 38 14 0
2022-05-21 03:10:01 GMT 44.882790 -93.219681 0 34 13 0
2022-05-21 03:10:00 GMT 44.882679 -93.219757 0 38 13 0
2022-05-21 03:09:58 GMT 44.882641 -93.219833 0 37 13 0
2022-05-21 03:09:56 GMT 44.882488 -93.219971 0 30 17 0
2022-05-21 03:09:54 GMT 44.882431 -93.220016 0 28 17 0
2022-05-21 03:09:53 GMT 44.882370 -93.220078 0 20 17 0
2022-05-21 03:09:51 GMT 44.882229 -93.220177 0 6 15 0
2022-05-21 03:09:50 GMT 44.882149 -93.220177 0 357 13 0
2022-05-21 03:09:49 GMT 44.882038 -93.220177 0 351 14 0
2022-05-21 03:09:47 GMT 44.881981 -93.220192 0 341 15 0
2022-05-21 03:09:46 GMT 44.881920 -93.220169 0 336 14 0
2022-05-21 03:09:45 GMT 44.881840 -93.220131 0 329 13 0
2022-05-21 03:09:43 GMT 44.881710 -93.220093 0 306 14 0
2022-05-21 03:09:42 GMT 44.881680 -93.220032 0 307 14 0
2022-05-21 03:09:41 GMT 44.881641 -93.219978 0 302 17 0
2022-05-21 03:09:39 GMT 44.881550 -93.219803 0 298 17 0
2022-05-21 03:09:38 GMT 44.881519 -93.219688 0 302 16 0
2022-05-21 03:09:37 GMT 44.881470 -93.219589 0 303 16 0
2022-05-21 03:09:35 GMT 44.881378 -93.219398 0 297 13 0
2022-05-21 03:09:34 GMT 44.881340 -93.219299 0 295 12 0
2022-05-21 03:09:33 GMT 44.881290 -93.219223 0 293 12 0
2022-05-21 03:09:31 GMT 44.881222 -93.219040 0 293 15 0
2022-05-21 03:09:30 GMT 44.881199 -93.218941 0 299 19 0
2022-05-21 03:09:29 GMT 44.881161 -93.218842 0 301 23 0
2022-05-21 03:09:28 GMT 44.881062 -93.218582 0 302 34 0
2022-05-21 03:09:26 GMT 44.880970 -93.218407 0 300 39 0
2022-05-21 03:09:25 GMT 44.880878 -93.218224 0 299 44 0
2022-05-21 03:09:24 GMT 44.880779 -93.217972 0 300 48 0
2022-05-21 03:09:22 GMT 44.880569 -93.217430 0 302 59 0
2022-05-21 03:09:21 GMT 44.880428 -93.217117 975 302 65 0
2022-05-21 03:09:20 GMT 44.880299 -93.216789 975 303 72 0
2022-05-21 03:09:19 GMT 44.879921 -93.216011 975 301 78 0
2022-05-21 03:09:17 GMT 44.879742 -93.215599 975 301 82 0
2022-05-21 03:09:16 GMT 44.879551 -93.215149 975 302 87 0
2022-05-21 03:09:15 GMT 44.879101 -93.214233 975 299 96 0
2022-05-21 03:09:13 GMT 44.878891 -93.213699 975 300 101 0
2022-05-21 03:09:12 GMT 44.878651 -93.213142 975 300 104 0
2022-05-21 03:09:10 GMT 44.878208 -93.211998 975 301 115 32
2022-05-21 03:09:09 GMT 44.877918 -93.211357 975 301 116 32
2022-05-21 03:09:08 GMT 44.877628 -93.210800 975 300 123 32
2022-05-21 03:09:07 GMT 44.877350 -93.210098 975 300 124 32
2022-05-21 03:09:06 GMT 44.876801 -93.208763 975 301 132 -768
2022-05-21 03:09:04 GMT 44.876492 -93.208031 975 301 133 -768
2022-05-21 03:09:02 GMT 44.875851 -93.206558 975 301 134 -768
2022-05-21 03:09:01 GMT 44.875549 -93.205818 975 302 137 -768
2022-05-21 03:09:00 GMT 44.875210 -93.205070 1,000 301 137 -768
2022-05-21 03:08:58 GMT 44.874538 -93.203568 1,025 301 139 -768
2022-05-21 03:08:57 GMT 44.874191 -93.202797 1,200 300 139 -768
2022-05-21 03:08:56 GMT 44.873871 -93.201988 1,200 301 136 -768
2022-05-21 03:08:54 GMT 44.873192 -93.200508 1,200 300 139 -768
2022-05-21 03:08:52 GMT 44.872540 -93.198914 1,200 301 135 -768
2022-05-21 03:08:51 GMT 44.872219 -93.198174 1,200 301 136 -768
2022-05-21 03:08:50 GMT 44.871929 -93.197472 1,200 301 143 -768
2022-05-21 03:08:49 GMT 44.871529 -93.196617 1,200 300 137 -768
2022-05-21 03:08:47 GMT 44.870861 -93.195038 1,200 302 138 -768
2022-05-21 03:08:46 GMT 44.870529 -93.194389 1,200 301 147 -768
2022-05-21 03:08:45 GMT 44.870171 -93.193481 1,200 302 139 -768
2022-05-21 03:08:44 GMT 44.869801 -93.192673 1,200 301 135 -768
2022-05-21 03:08:42 GMT 44.869160 -93.191223 1,225 301 142 -768
2022-05-21 03:08:41 GMT 44.868801 -93.190422 1,225 301 141 -768
2022-05-21 03:08:40 GMT 44.868469 -93.189613 1,300 302 140 -768
2022-05-21 03:08:39 GMT 44.867790 -93.188011 1,275 302 139 -768
2022-05-21 03:08:37 GMT 44.867458 -93.187248 1,275 302 140 -768
2022-05-21 03:08:36 GMT 44.867088 -93.186493 1,300 301 140 -768
2022-05-21 03:08:34 GMT 44.866428 -93.184990 1,350 301 148 -768
2022-05-21 03:08:33 GMT 44.866058 -93.184174 1,350 300 147 -768
2022-05-21 03:08:32 GMT 44.865719 -93.183327 1,350 300 145 -768
2022-05-21 03:08:31 GMT 44.865021 -93.181671 1,400 302 141 -768
2022-05-21 03:08:29 GMT 44.864689 -93.180908 1,400 302 142 -768
2022-05-21 03:08:28 GMT 44.864349 -93.180191 1,400 302 145 -768
2022-05-21 03:08:27 GMT 44.863621 -93.178589 1,425 300 143 -768
2022-05-21 03:08:25 GMT 44.863281 -93.177841 1,425 300 146 -768
2022-05-21 03:08:24 GMT 44.862579 -93.176140 1,500 300 142 -768
2022-05-21 03:08:23 GMT 44.862259 -93.175270 1,500 302 139 -768
2022-05-21 03:08:21 GMT 44.861881 -93.174561 1,525 300 140 -768
2022-05-21 03:08:20 GMT 44.861252 -93.172958 1,525 301 141 -768
2022-05-21 03:08:18 GMT 44.860909 -93.172188 1,525 301 142 -768
2022-05-21 03:08:17 GMT 44.860611 -93.171387 1,600 303 142 -768
2022-05-21 03:08:16 GMT 44.859879 -93.169861 1,700 300 143 -768
2022-05-21 03:08:14 GMT 44.859558 -93.169037 1,700 301 143 -768
2022-05-21 03:08:13 GMT 44.859192 -93.168213 1,700 301 141 -768
2022-05-21 03:08:11 GMT 44.858509 -93.166679 1,700 301 143 -768
2022-05-21 03:08:10 GMT 44.858158 -93.165894 1,700 300 142 -768
2022-05-21 03:08:09 GMT 44.857819 -93.165092 1,700 301 142 -768
2022-05-21 03:08:08 GMT 44.857498 -93.164291 1,700 301 142 -768
2022-05-21 03:08:06 GMT 44.856819 -93.162750 1,700 301 144 -768
2022-05-21 03:08:05 GMT 44.856461 -93.161926 1,700 301 143 -768
2022-05-21 03:08:04 GMT 44.856121 -93.161110 1,700 302 142 -768
2022-05-21 03:08:03 GMT 44.855438 -93.159576 1,900 302 144 -768
2022-05-21 03:08:01 GMT 44.855061 -93.158783 1,900 301 144 -768
2022-05-21 03:08:00 GMT 44.854710 -93.157997 1,900 301 144 -768
2022-05-21 03:07:59 GMT 44.854000 -93.156433 1,900 301 145 -768
2022-05-21 03:07:57 GMT 44.853649 -93.155579 1,900 301 144 -768
2022-05-21 03:07:56 GMT 44.853310 -93.154793 1,900 301 144 -768
2022-05-21 03:07:55 GMT 44.852970 -93.153999 1,900 301 145 -768
2022-05-21 03:07:54 GMT 44.852268 -93.152412 2,000 301 145 -768
2022-05-21 03:07:52 GMT 44.851921 -93.151619 2,000 301 145 -768
2022-05-21 03:07:51 GMT 44.851559 -93.150787 2,000 302 144 -768
2022-05-21 03:07:50 GMT 44.850849 -93.149231 2,000 301 145 -768
2022-05-21 03:07:48 GMT 44.850479 -93.148422 2,000 301 144 -768
2022-05-21 03:07:46 GMT 44.849812 -93.146851 2,000 302 147 -768
2022-05-21 03:07:45 GMT 44.849442 -93.146011 2,000 302 145 -768
2022-05-21 03:07:44 GMT 44.849060 -93.145218 2,100 301 144 -768
2022-05-21 03:07:42 GMT 44.848358 -93.143639 2,100 301 145 -768
2022-05-21 03:07:41 GMT 44.847988 -93.142822 2,100 301 143 -768
2022-05-21 03:07:40 GMT 44.847660 -93.142021 2,100 301 144 -768
2022-05-21 03:07:38 GMT 44.846970 -93.140419 2,200 301 144 -768
2022-05-21 03:07:37 GMT 44.846642 -93.139664 2,200 301 146 -768
2022-05-21 03:07:36 GMT 44.845921 -93.138046 2,200 301 146 -768
2022-05-21 03:07:34 GMT 44.845570 -93.137238 2,200 301 145 -640
2022-05-21 03:07:33 GMT 44.845211 -93.136429 2,200 301 145 -640
2022-05-21 03:07:31 GMT 44.844521 -93.134804 2,200 301 144 -640
2022-05-21 03:07:30 GMT 44.844151 -93.134003 2,200 300 143 -640
2022-05-21 03:07:29 GMT 44.843811 -93.133202 2,200 300 143 -640
2022-05-21 03:07:27 GMT 44.843151 -93.131561 2,200 301 142 -640
2022-05-21 03:07:26 GMT 44.842819 -93.130814 2,200 301 144 -640
2022-05-21 03:07:25 GMT 44.842461 -93.130058 2,400 301 146 -640
2022-05-21 03:07:24 GMT 44.841759 -93.128410 2,400 301 145 -640
2022-05-21 03:07:22 GMT 44.841431 -93.127571 2,400 301 144 -640
2022-05-21 03:07:20 GMT 44.840710 -93.125954 2,400 301 143 -640
2022-05-21 03:07:19 GMT 44.840370 -93.125198 2,400 301 145 -640
2022-05-21 03:07:18 GMT 44.840019 -93.124359 2,400 302 143 -640
2022-05-21 03:07:16 GMT 44.839310 -93.122810 2,400 301 144 -640
2022-05-21 03:07:14 GMT 44.838619 -93.121201 2,400 302 144 -640
2022-05-21 03:07:13 GMT 44.838242 -93.120399 2,400 301 143 -640
2022-05-21 03:07:12 GMT 44.837879 -93.119614 2,400 301 142 -640
2022-05-21 03:07:11 GMT 44.837540 -93.118828 2,500 301 143 -640
2022-05-21 03:07:09 GMT 44.836842 -93.117241 2,500 301 142 -640
2022-05-21 03:07:08 GMT 44.836498 -93.116478 2,500 301 143 -640
2022-05-21 03:07:07 GMT 44.836151 -93.115700 2,500 301 144 -640
2022-05-21 03:07:05 GMT 44.835449 -93.114120 2,500 301 144 -640
2022-05-21 03:07:04 GMT 44.835091 -93.113297 2,500 301 143 -640
2022-05-21 03:07:03 GMT 44.834751 -93.112480 2,500 301 142 -640
2022-05-21 03:07:01 GMT 44.834061 -93.110939 2,700 301 144 -640
2022-05-21 03:07:00 GMT 44.833721 -93.110168 2,700 301 145 -640
2022-05-21 03:06:58 GMT 44.833038 -93.108627 2,700 301 149 -640
2022-05-21 03:06:57 GMT 44.832661 -93.107819 2,700 301 149 -640
2022-05-21 03:06:56 GMT 44.832291 -93.106987 2,700 301 148 -640
2022-05-21 03:06:55 GMT 44.831928 -93.106133 2,700 301 146 -640
2022-05-21 03:06:53 GMT 44.831211 -93.104523 2,700 300 147 -640
2022-05-21 03:06:52 GMT 44.830860 -93.103737 2,700 300 148 -640
2022-05-21 03:06:51 GMT 44.830528 -93.102921 2,700 301 150 -640
2022-05-21 03:06:49 GMT 44.829800 -93.101219 2,700 301 148 -640
2022-05-21 03:06:48 GMT 44.829430 -93.100403 2,900 300 148 -640
2022-05-21 03:06:47 GMT 44.829079 -93.099571 2,900 300 147 -640
2022-05-21 03:06:45 GMT 44.828411 -93.097939 2,900 301 149 -640
2022-05-21 03:06:44 GMT 44.827690 -93.096283 2,900 301 148 -640
2022-05-21 03:06:42 GMT 44.827339 -93.095367 2,900 302 145 -640
2022-05-21 03:06:41 GMT 44.826630 -93.093742 2,900 302 144 -640
2022-05-21 03:06:39 GMT 44.826260 -93.092957 2,900 302 144 -640
2022-05-21 03:06:38 GMT 44.825920 -93.092178 2,900 302 146 -640
2022-05-21 03:06:37 GMT 44.825199 -93.090637 2,900 300 151 -640
2022-05-21 03:06:35 GMT 44.824821 -93.089821 2,900 299 151 -640
2022-05-21 03:06:34 GMT 44.824379 -93.089149 3,000 294 156 -1216
2022-05-21 03:06:33 GMT 44.823730 -93.087288 3,000 297 153 -1216
2022-05-21 03:06:29 GMT 44.822800 -93.084938 2,975 301 148 -832
2022-05-21 03:06:24 GMT 44.820740 -93.079964 3,050 300 150 -832
2022-05-21 03:06:18 GMT 44.819046 -93.075714 3,125 301 147 -832
2022-05-21 03:06:12 GMT 44.816986 -93.070747 3,200 301 146 -832
2022-05-21 03:06:08 GMT 44.815605 -93.067528 3,225 302 147 -832
2022-05-21 03:06:03 GMT 44.813644 -93.063095 3,325 303 148 -832
2022-05-21 03:05:58 GMT 44.811928 -93.059219 3,400 303 150 -832
2022-05-21 03:05:51 GMT 44.809231 -93.053192 3,500 303 154 -896
2022-05-21 03:05:47 GMT 44.807831 -93.050110 3,550 303 157 -896
2022-05-21 03:05:42 GMT 44.805832 -93.045624 3,625 303 159 -960
2022-05-21 03:05:38 GMT 44.803802 -93.041183 3,725 303 160 -1088
2022-05-21 03:05:31 GMT 44.801285 -93.035690 3,825 303 162 -1024
2022-05-21 03:05:27 GMT 44.799641 -93.032028 3,900 302 162 -1024
2022-05-21 03:05:22 GMT 44.797302 -93.026733 4,000 302 162 -896
2022-05-21 03:05:17 GMT 44.795517 -93.022614 4,050 302 161 -832
2022-05-21 03:05:12 GMT 44.793503 -93.017906 4,125 302 162 -512
2022-05-21 03:05:09 GMT 44.792404 -93.015419 4,150 302 161 -384
2022-05-21 03:05:06 GMT 44.791447 -93.013199 4,150 302 161 -320
2022-05-21 03:05:00 GMT 44.789352 -93.008308 4,175 302 165 0
2022-05-21 03:04:56 GMT 44.787323 -93.003647 4,175 302 166 0
2022-05-21 03:04:48 GMT 44.784485 -92.997177 4,175 302 169 -64
2022-05-21 03:04:45 GMT 44.783112 -92.994034 4,175 302 170 -64
2022-05-21 03:04:40 GMT 44.780914 -92.988937 4,200 302 171 -64
2022-05-21 03:04:35 GMT 44.778809 -92.984161 4,175 302 174 192
2022-05-21 03:04:28 GMT 44.775852 -92.977493 4,150 302 175 0
2022-05-21 03:04:23 GMT 44.774231 -92.973892 4,175 303 176 0
2022-05-21 03:04:20 GMT 44.772400 -92.969841 4,175 303 177 -64
2022-05-21 03:04:16 GMT 44.770359 -92.965302 4,175 303 178 -64
2022-05-21 03:04:13 GMT 44.769474 -92.963295 4,175 303 178 0
2022-05-21 03:04:10 GMT 44.767891 -92.959747 4,175 302 180 -64
2022-05-21 03:04:05 GMT 44.765991 -92.955521 4,175 302 179 -64
2022-05-21 03:04:02 GMT 44.764709 -92.952507 4,175 302 179 0
2022-05-21 03:03:59 GMT 44.763382 -92.949570 4,175 302 177 0
2022-05-21 03:03:55 GMT 44.761559 -92.945274 4,175 301 177 0
2022-05-21 03:03:50 GMT 44.759674 -92.940872 4,175 302 176 64
2022-05-21 03:03:47 GMT 44.758114 -92.937233 4,175 302 175 64
2022-05-21 03:03:43 GMT 44.756252 -92.932945 4,175 302 175 64
2022-05-21 03:03:38 GMT 44.754765 -92.929466 4,175 302 175 0
2022-05-21 03:03:35 GMT 44.753448 -92.926414 4,175 302 175 0
2022-05-21 03:03:31 GMT 44.751781 -92.922630 4,175 301 174 -64
2022-05-21 03:03:26 GMT 44.749557 -92.917526 4,175 302 175 0
2022-05-21 03:03:22 GMT 44.747501 -92.912720 4,175 302 175 0
2022-05-21 03:03:18 GMT 44.746078 -92.909546 4,175 302 175 0
2022-05-21 03:03:14 GMT 44.744102 -92.905014 4,175 302 175 64
2022-05-21 03:03:10 GMT 44.742985 -92.902466 4,175 302 175 0
2022-05-21 03:03:06 GMT 44.740795 -92.897644 4,175 303 175 0
2022-05-21 03:03:02 GMT 44.739304 -92.894310 4,175 303 175 0
2022-05-21 03:02:58 GMT 44.737106 -92.889473 4,175 303 174 0
2022-05-21 03:02:55 GMT 44.736237 -92.887459 4,175 303 174 0
2022-05-21 03:02:52 GMT 44.734932 -92.884583 4,175 302 174 0
2022-05-21 03:02:47 GMT 44.732883 -92.879959 4,175 302 174 0
2022-05-21 03:02:43 GMT 44.730556 -92.874802 4,175 302 174 0
2022-05-21 03:02:36 GMT 44.728043 -92.868973 4,175 302 174 0
2022-05-21 03:02:32 GMT 44.726273 -92.864952 4,175 302 174 0
2022-05-21 03:02:28 GMT 44.724598 -92.861069 4,175 302 175 0
2022-05-21 03:02:25 GMT 44.723282 -92.858017 4,175 302 176 0
2022-05-21 03:02:21 GMT 44.721989 -92.855042 4,175 302 176 0
2022-05-21 03:02:15 GMT 44.719524 -92.849342 4,175 302 177 0
2022-05-21 03:02:12 GMT 44.717468 -92.844475 4,175 302 179 64
2022-05-21 03:02:09 GMT 44.716324 -92.841866 4,175 302 179 0
2022-05-21 03:02:04 GMT 44.714588 -92.837822 4,150 301 180 0
2022-05-21 03:02:00 GMT 44.712868 -92.833733 4,175 301 181 0
2022-05-21 03:01:56 GMT 44.710693 -92.828590 4,175 300 182 0
2022-05-21 03:01:53 GMT 44.710098 -92.827148 4,175 300 183 64
2022-05-21 03:01:48 GMT 44.707142 -92.820000 4,175 301 184 0
2022-05-21 03:01:43 GMT 44.705795 -92.816818 4,175 301 184 -64
2022-05-21 03:01:40 GMT 44.704056 -92.812698 4,175 301 185 -64
2022-05-21 03:01:36 GMT 44.702545 -92.809166 4,175 302 185 -64
2022-05-21 03:01:33 GMT 44.701134 -92.806000 4,175 303 185 -64
2022-05-21 03:01:30 GMT 44.699551 -92.802589 4,175 305 183 64
2022-05-21 03:01:23 GMT 44.696274 -92.796677 4,175 322 184 -64
2022-05-21 03:01:19 GMT 44.693501 -92.793739 4,175 329 184 0
2022-05-21 03:01:13 GMT 44.688812 -92.790070 4,175 331 183 64
2022-05-21 03:01:10 GMT 44.686295 -92.788109 4,175 331 182 64
2022-05-21 03:01:06 GMT 44.683044 -92.785561 4,175 331 182 0
2022-05-21 03:01:02 GMT 44.681210 -92.784096 4,175 331 181 0
2022-05-21 03:00:59 GMT 44.678558 -92.782021 4,175 331 181 0
2022-05-21 03:00:53 GMT 44.673763 -92.778198 4,175 331 181 64
2022-05-21 03:00:48 GMT 44.670830 -92.775856 4,150 332 181 64
2022-05-21 03:00:45 GMT 44.667526 -92.773331 4,150 332 183 0
2022-05-21 03:00:42 GMT 44.666016 -92.772148 4,150 332 183 0
2022-05-21 03:00:39 GMT 44.663101 -92.769897 4,150 332 184 64
2022-05-21 03:00:32 GMT 44.658585 -92.766411 4,150 332 187 0
2022-05-21 03:00:28 GMT 44.655373 -92.764000 4,150 334 189 0
2022-05-21 03:00:22 GMT 44.650497 -92.760841 4,150 341 192 0
2022-05-21 03:00:17 GMT 44.646297 -92.759041 4,150 350 196 0
2022-05-21 03:00:12 GMT 44.641270 -92.757904 4,150 356 198 0
2022-05-21 03:00:07 GMT 44.637131 -92.757698 4,150 1 200 -64
2022-05-21 03:00:01 GMT 44.631912 -92.757973 4,175 2 200 -192
2022-05-21 02:59:57 GMT 44.628139 -92.758240 4,175 2 200 128
2022-05-21 02:59:51 GMT 44.622665 -92.758614 4,175 3 200 -64
2022-05-21 02:59:40 GMT 44.612915 -92.759399 4,175 2 199 -64
2022-05-21 02:59:31 GMT 44.603485 -92.760056 4,175 3 199 -64
2022-05-21 02:59:20 GMT 44.594017 -92.760986 4,175 4 199 64
2022-05-21 02:59:10 GMT 44.584660 -92.762321 4,150 9 201 0
2022-05-21 02:59:00 GMT 44.575397 -92.765877 4,150 24 208 64
2022-05-21 02:58:50 GMT 44.566589 -92.773201 4,150 38 216 0
2022-05-21 02:58:39 GMT 44.559219 -92.783592 4,150 53 227 0
2022-05-21 02:58:28 GMT 44.553040 -92.798241 4,150 67 235 -64
2022-05-21 02:58:17 GMT 44.549744 -92.813286 4,175 79 240 -192
2022-05-21 02:58:07 GMT 44.548828 -92.830025 4,225 93 241 -64
2022-05-21 02:57:57 GMT 44.550304 -92.844719 4,225 106 240 -64
2022-05-21 02:57:47 GMT 44.554596 -92.860435 4,225 119 236 0
2022-05-21 02:57:38 GMT 44.560043 -92.871681 4,225 130 230 0
2022-05-21 02:57:35 GMT 44.561665 -92.874268 4,225 134 228 0
2022-05-21 02:57:26 GMT 44.569016 -92.883064 4,225 148 219 64
2022-05-21 02:57:15 GMT 44.578583 -92.889534 4,225 163 212 64
2022-05-21 02:57:07 GMT 44.586105 -92.891953 4,225 172 210 64
2022-05-21 02:57:04 GMT 44.589363 -92.892555 4,200 172 209 64
2022-05-21 02:56:57 GMT 44.596024 -92.893723 4,200 172 211 0
2022-05-21 02:56:54 GMT 44.598488 -92.894157 4,200 173 212 0
2022-05-21 02:56:47 GMT 44.606121 -92.895432 4,200 173 216 0
2022-05-21 02:56:41 GMT 44.611755 -92.896301 4,200 173 218 0
2022-05-21 02:56:36 GMT 44.616596 -92.897041 4,350 173 249 -896
2022-05-21 02:56:33 GMT 44.620506 -92.897644 4,200 174 223 0
2022-05-21 02:56:26 GMT 44.626785 -92.898560 4,200 173 228 0
2022-05-21 02:56:22 GMT 44.631306 -92.899185 4,200 174 230 -64
2022-05-21 02:56:16 GMT 44.637730 -92.900124 4,225 173 235 -64
2022-05-21 02:56:13 GMT 44.642059 -92.900795 4,225 173 238 -128
2022-05-21 02:56:05 GMT 44.653976 -92.902679 4,350 173 249 -896
2022-05-21 02:56:02 GMT 44.653976 -92.902679 4,275 173 247 -640
2022-05-21 02:55:56 GMT 44.661194 -92.903809 4,400 173 251 -1408
2022-05-21 02:55:51 GMT 44.665802 -92.904541 4,500 173 251 -1728
2022-05-21 02:55:45 GMT 44.672550 -92.905617 4,650 173 251 -1664
2022-05-21 02:55:39 GMT 44.680420 -92.906891 4,850 173 251 -1664
2022-05-21 02:55:34 GMT 44.684795 -92.907623 4,950 173 252 -1728
2022-05-21 02:55:31 GMT 44.688519 -92.908226 5,100 173 252 -1728
2022-05-21 02:55:28 GMT 44.692711 -92.908897 5,150 173 252 -1728
2022-05-21 02:55:23 GMT 44.697552 -92.909698 5,275 173 252 -1728
2022-05-21 02:55:17 GMT 44.704880 -92.910919 5,450 173 251 -1664
2022-05-21 02:55:13 GMT 44.709606 -92.911713 5,525 173 252 -1664
2022-05-21 02:55:08 GMT 44.716232 -92.912819 5,725 173 252 -1664
2022-05-21 02:55:04 GMT 44.720901 -92.913597 5,825 173 252 -1664
2022-05-21 02:55:00 GMT 44.726131 -92.914459 5,950 173 253 -1664
2022-05-21 02:54:57 GMT 44.728546 -92.914909 6,025 173 253 -1664
2022-05-21 02:54:53 GMT 44.733116 -92.915665 6,125 173 253 -1664
2022-05-21 02:54:49 GMT 44.738934 -92.916603 6,275 173 253 -1664
2022-05-21 02:54:45 GMT 44.742428 -92.917206 6,375 173 254 -1664
2022-05-21 02:54:42 GMT 44.745346 -92.917717 6,375 173 254 -1664
2022-05-21 02:54:37 GMT 44.752949 -92.919014 6,600 172 255 -1664
2022-05-21 02:54:33 GMT 44.756950 -92.919754 6,700 172 255 -1664
2022-05-21 02:54:28 GMT 44.763515 -92.920891 6,850 172 255 -1664
2022-05-21 02:54:25 GMT 44.765259 -92.921249 6,975 172 255 -1664
2022-05-21 02:54:22 GMT 44.769241 -92.921906 7,400 173 254 -1664
2022-05-21 02:54:18 GMT 44.774734 -92.922897 7,400 173 254 -1664
2022-05-21 02:54:15 GMT 44.777206 -92.923279 7,150 173 255 -1664
2022-05-21 02:54:12 GMT 44.781235 -92.923996 7,275 173 254 -1664
2022-05-21 02:54:06 GMT 44.788239 -92.925179 7,450 173 253 -1664
2022-05-21 02:54:02 GMT 44.793262 -92.925980 7,550 174 253 -1664
2022-05-21 02:53:55 GMT 44.800941 -92.926720 7,750 179 250 -1664
2022-05-21 02:53:51 GMT 44.805550 -92.926582 7,850 185 246 -1728
2022-05-21 02:53:45 GMT 44.812302 -92.925514 8,025 192 243 -1728
2022-05-21 02:53:41 GMT 44.816620 -92.924194 8,150 196 241 -1792
2022-05-21 02:53:35 GMT 44.823578 -92.920990 8,350 203 238 -1856
2022-05-21 02:53:30 GMT 44.827477 -92.918549 8,475 207 235 -1856
2022-05-21 02:53:24 GMT 44.833485 -92.913719 8,675 215 231 -1856
2022-05-21 02:53:20 GMT 44.837036 -92.910133 8,725 218 229 -1856
2022-05-21 02:53:14 GMT 44.841797 -92.904312 8,950 227 224 -1664
2022-05-21 02:53:10 GMT 44.844635 -92.900063 9,075 231 222 -1408
2022-05-21 02:53:06 GMT 44.847446 -92.895096 9,150 237 218 -1088
2022-05-21 02:53:02 GMT 44.849854 -92.889862 9,200 241 216 -512
2022-05-21 02:52:59 GMT 44.850845 -92.887260 9,225 243 214 -192
2022-05-21 02:52:53 GMT 44.853241 -92.879463 9,225 254 213 0
2022-05-21 02:52:50 GMT 44.854248 -92.874428 9,225 258 212 0
2022-05-21 02:52:42 GMT 44.855255 -92.864883 9,225 267 211 0
2022-05-21 02:52:39 GMT 44.855438 -92.860764 9,225 267 211 0
2022-05-21 02:52:33 GMT 44.855850 -92.851151 9,225 267 210 0
2022-05-21 02:52:29 GMT 44.856079 -92.846504 9,225 267 210 0
2022-05-21 02:52:22 GMT 44.856491 -92.836960 9,225 267 210 0
2022-05-21 02:52:19 GMT 44.856674 -92.832054 9,225 267 210 0
2022-05-21 02:52:12 GMT 44.857086 -92.822884 9,225 267 210 64
2022-05-21 02:52:08 GMT 44.857269 -92.817795 9,225 268 210 0
2022-05-21 02:52:01 GMT 44.857643 -92.808083 9,225 268 211 0
2022-05-21 02:51:58 GMT 44.857773 -92.804390 9,225 268 211 0
2022-05-21 02:51:52 GMT 44.858139 -92.794777 9,225 268 211 0
2022-05-21 02:51:48 GMT 44.858341 -92.789185 9,225 268 211 -64
2022-05-21 02:51:40 GMT 44.858734 -92.778625 9,225 268 211 0
2022-05-21 02:51:32 GMT 44.859085 -92.768356 9,225 268 210 64
2022-05-21 02:51:29 GMT 44.859226 -92.764801 9,225 268 210 64
2022-05-21 02:51:26 GMT 44.859318 -92.761253 9,225 268 210 64
2022-05-21 02:51:19 GMT 44.859692 -92.750870 9,225 268 210 0
2022-05-21 02:51:16 GMT 44.859833 -92.747429 9,225 268 210 0
2022-05-21 02:51:07 GMT 44.860249 -92.733917 9,225 269 210 0
2022-05-21 02:50:59 GMT 44.860481 -92.723267 9,225 269 209 64
2022-05-21 02:50:56 GMT 44.860565 -92.719643 9,225 269 209 64
2022-05-21 02:50:50 GMT 44.860748 -92.709572 9,225 269 208 -64
2022-05-21 02:50:47 GMT 44.860794 -92.708199 9,225 269 208 -64
2022-05-21 02:50:44 GMT 44.860886 -92.704208 9,225 269 207 0
2022-05-21 02:50:39 GMT 44.860977 -92.696358 9,225 269 207 0
2022-05-21 02:50:36 GMT 44.861069 -92.691780 9,225 270 207 -64
2022-05-21 02:50:28 GMT 44.861115 -92.681839 9,225 271 206 0
2022-05-21 02:50:24 GMT 44.861088 -92.677177 9,225 271 205 0
2022-05-21 02:50:18 GMT 44.860977 -92.668236 9,225 273 205 64
2022-05-21 02:50:14 GMT 44.860840 -92.663986 9,200 274 205 64
2022-05-21 02:50:05 GMT 44.859467 -92.650192 9,200 286 206 -128
2022-05-21 02:49:57 GMT 44.856995 -92.640907 9,225 303 208 0
2022-05-21 02:49:54 GMT 44.855686 -92.637459 9,225 305 209 64
2022-05-21 02:49:47 GMT 44.851730 -92.629684 9,225 313 211 64
2022-05-21 02:49:42 GMT 44.848705 -92.625328 9,200 318 212 64
2022-05-21 02:49:36 GMT 44.844002 -92.620171 9,200 328 217 0
2022-05-21 02:49:33 GMT 44.841522 -92.618019 9,200 338 221 -64
2022-05-21 02:49:26 GMT 44.834839 -92.613762 9,225 342 222 -64
2022-05-21 02:49:22 GMT 44.831387 -92.612335 9,225 347 223 -64
2022-05-21 02:49:15 GMT 44.823986 -92.610657 9,225 356 226 0
2022-05-21 02:49:12 GMT 44.820866 -92.610329 9,225 357 226 -64
2022-05-21 02:49:03 GMT 44.810532 -92.609451 9,225 356 225 64
2022-05-21 02:48:53 GMT 44.799404 -92.608315 9,225 356 224 -64
2022-05-21 02:48:46 GMT 44.792267 -92.607552 9,225 356 223 0
2022-05-21 02:48:42 GMT 44.788788 -92.607162 9,225 356 222 0
2022-05-21 02:48:35 GMT 44.781784 -92.606377 9,225 1 225 -64
2022-05-21 02:48:32 GMT 44.778305 -92.605919 9,200 356 222 64
2022-05-21 02:48:24 GMT 44.771118 -92.605064 9,200 356 222 64
2022-05-21 02:48:20 GMT 44.765991 -92.604477 9,200 356 222 0
2022-05-21 02:48:14 GMT 44.760406 -92.603958 9,200 1 225 -64
2022-05-21 02:48:10 GMT 44.756393 -92.603760 9,200 4 226 -64
2022-05-21 02:48:04 GMT 44.750015 -92.603958 9,225 6 226 -64
2022-05-21 02:47:58 GMT 44.743076 -92.605637 9,225 15 230 0
2022-05-21 02:47:53 GMT 44.739075 -92.607353 9,225 27 235 0
2022-05-21 02:47:49 GMT 44.734791 -92.609924 9,225 29 235 0
2022-05-21 02:47:44 GMT 44.729115 -92.614548 9,225 37 239 -64
2022-05-21 02:47:39 GMT 44.725574 -92.618233 9,225 40 241 -64
2022-05-21 02:47:33 GMT 44.720455 -92.624794 9,225 44 241 0
2022-05-21 02:47:29 GMT 44.716553 -92.630180 9,225 44 241 0
2022-05-21 02:47:24 GMT 44.712708 -92.635475 9,225 44 241 0
2022-05-21 02:47:19 GMT 44.709606 -92.639732 9,225 44 241 0
2022-05-21 02:47:13 GMT 44.704605 -92.646721 9,225 44 241 0
2022-05-21 02:47:10 GMT 44.700996 -92.651657 9,225 44 241 -64
2022-05-21 02:47:07 GMT 44.699413 -92.653870 9,225 44 241 -64
2022-05-21 02:47:03 GMT 44.696571 -92.657890 9,225 44 241 -64
2022-05-21 02:46:58 GMT 44.692616 -92.663383 9,225 44 241 64
2022-05-21 02:46:52 GMT 44.687962 -92.669746 9,225 44 241 64
2022-05-21 02:46:48 GMT 44.685013 -92.673798 9,200 44 242 64
2022-05-21 02:46:45 GMT 44.681721 -92.678322 9,200 44 242 64
2022-05-21 02:46:42 GMT 44.678974 -92.682007 9,200 44 243 0
2022-05-21 02:46:39 GMT 44.676636 -92.685173 9,200 44 243 -64
2022-05-21 02:46:36 GMT 44.674599 -92.687965 9,200 44 243 -64
2022-05-21 02:46:32 GMT 44.671665 -92.691917 9,225 44 243 64
2022-05-21 02:46:27 GMT 44.667011 -92.698280 9,225 44 243 -64
2022-05-21 02:46:22 GMT 44.663475 -92.703171 9,225 44 243 0
2022-05-21 02:46:16 GMT 44.658920 -92.709572 9,225 45 243 64
2022-05-21 02:46:12 GMT 44.655468 -92.714363 9,200 44 243 64
2022-05-21 02:46:08 GMT 44.652115 -92.719048 9,200 45 244 64
2022-05-21 02:46:05 GMT 44.650532 -92.721260 9,200 45 244 0
2022-05-21 02:46:00 GMT 44.645920 -92.727684 9,200 44 245 -64
2022-05-21 02:45:57 GMT 44.643539 -92.731018 9,200 44 245 -64
2022-05-21 02:45:54 GMT 44.641361 -92.734055 9,225 44 245 -64
2022-05-21 02:45:50 GMT 44.638428 -92.738144 9,225 44 245 -64
2022-05-21 02:45:47 GMT 44.635437 -92.742264 9,225 44 245 0
2022-05-21 02:45:43 GMT 44.631912 -92.747169 9,225 44 246 0
2022-05-21 02:45:39 GMT 44.628983 -92.751228 9,225 44 246 64
2022-05-21 02:45:34 GMT 44.625023 -92.756699 9,225 44 246 0
2022-05-21 02:45:29 GMT 44.620880 -92.762405 9,225 44 246 0
2022-05-21 02:45:26 GMT 44.618454 -92.765808 9,225 44 246 -64
2022-05-21 02:45:23 GMT 44.616348 -92.768753 9,225 44 246 0
2022-05-21 02:45:20 GMT 44.613739 -92.772285 9,225 44 246 0
2022-05-21 02:45:14 GMT 44.608063 -92.780128 9,225 44 246 64
2022-05-21 02:45:08 GMT 44.604126 -92.785492 9,200 44 246 0
2022-05-21 02:45:00 GMT 44.597305 -92.794907 9,225 44 247 0
2022-05-21 02:44:57 GMT 44.594376 -92.798965 9,225 44 247 0
2022-05-21 02:44:53 GMT 44.591179 -92.803391 9,225 44 247 0
2022-05-21 02:44:50 GMT 44.588974 -92.806419 9,225 44 247 0
2022-05-21 02:44:42 GMT 44.582291 -92.815704 9,225 44 248 0
2022-05-21 02:44:38 GMT 44.579178 -92.820023 9,200 44 248 0
2022-05-21 02:44:32 GMT 44.574001 -92.827171 9,225 44 249 0
2022-05-21 02:44:28 GMT 44.570602 -92.831924 9,225 44 248 0
2022-05-21 02:44:24 GMT 44.567368 -92.836372 9,225 44 248 0
2022-05-21 02:44:21 GMT 44.565342 -92.839165 9,225 44 248 0
2022-05-21 02:44:17 GMT 44.561783 -92.844017 9,225 45 240 0
2022-05-21 02:44:14 GMT 44.559631 -92.846962 9,225 44 248 -64
2022-05-21 02:44:09 GMT 44.555286 -92.852959 9,225 44 248 -64
2022-05-21 02:44:04 GMT 44.551254 -92.858475 9,225 47 240 0
2022-05-21 02:44:00 GMT 44.548397 -92.862404 9,225 44 248 0
2022-05-21 02:43:57 GMT 44.545139 -92.866898 9,225 44 247 0
2022-05-21 02:43:54 GMT 44.542995 -92.869843 9,225 44 247 0
2022-05-21 02:43:49 GMT 44.538483 -92.875931 9,225 44 246 64
2022-05-21 02:43:46 GMT 44.536377 -92.878807 9,225 44 246 0
2022-05-21 02:43:41 GMT 44.532383 -92.884247 9,225 44 244 0
2022-05-21 02:43:38 GMT 44.530239 -92.887131 9,225 44 243 0
2022-05-21 02:43:35 GMT 44.528008 -92.890205 9,225 44 243 0
2022-05-21 02:43:31 GMT 44.525074 -92.894157 9,225 44 243 0
2022-05-21 02:43:26 GMT 44.519672 -92.901665 9,225 44 241 -64
2022-05-21 02:43:21 GMT 44.516788 -92.905617 9,225 44 241 0
2022-05-21 02:43:18 GMT 44.514088 -92.909302 9,225 48 241 0
2022-05-21 02:43:13 GMT 44.509621 -92.915466 9,225 46 241 0
2022-05-21 02:43:09 GMT 44.506409 -92.920151 9,225 46 241 0
2022-05-21 02:43:06 GMT 44.505337 -92.921761 9,225 48 241 0
2022-05-21 02:43:02 GMT 44.502090 -92.927139 9,200 69 248 64
2022-05-21 02:42:56 GMT 44.498657 -92.934196 9,200 60 244 64
2022-05-21 02:42:51 GMT 44.495888 -92.942055 9,225 84 254 0
2022-05-21 02:42:48 GMT 44.494488 -92.948555 9,225 84 254 0
2022-05-21 02:42:44 GMT 44.493896 -92.953560 9,200 84 254 0
2022-05-21 02:42:40 GMT 44.493557 -92.959274 9,200 86 255 64
2022-05-21 02:42:37 GMT 44.493347 -92.965721 9,200 87 257 -64
2022-05-21 02:42:33 GMT 44.493187 -92.970863 9,200 87 257 -64
2022-05-21 02:42:30 GMT 44.493000 -92.976830 9,200 87 258 -64
2022-05-21 02:42:27 GMT 44.492844 -92.982658 9,200 87 258 -64
2022-05-21 02:42:24 GMT 44.492661 -92.988022 9,225 87 259 -64
2022-05-21 02:42:20 GMT 44.492439 -92.994514 9,225 87 258 -128
2022-05-21 02:42:16 GMT 44.492256 -93.001213 9,225 87 258 -128
2022-05-21 02:42:11 GMT 44.491928 -93.009514 9,225 86 257 -64
2022-05-21 02:42:08 GMT 44.491837 -93.012199 9,225 86 257 0
2022-05-21 02:42:05 GMT 44.491562 -93.018364 9,225 86 256 0
2022-05-21 02:42:00 GMT 44.491241 -93.026604 9,225 86 255 64
2022-05-21 02:41:57 GMT 44.491013 -93.032158 9,225 86 255 64
2022-05-21 02:41:53 GMT 44.490719 -93.039597 9,225 86 254 64
2022-05-21 02:41:49 GMT 44.490578 -93.043549 9,225 86 254 64
2022-05-21 02:41:45 GMT 44.490234 -93.052238 9,225 86 254 64
2022-05-21 02:41:42 GMT 44.490067 -93.056679 9,225 86 254 64
2022-05-21 02:41:39 GMT 44.489960 -93.060081 9,200 86 253 0
2022-05-21 02:41:34 GMT 44.489410 -93.072838 9,200 86 252 0
2022-05-21 02:41:31 GMT 44.489410 -93.072838 9,200 86 252 0
2022-05-21 02:41:28 GMT 44.489090 -93.080681 9,225 87 251 0
2022-05-21 02:41:25 GMT 44.488949 -93.084076 9,225 87 251 0
2022-05-21 02:41:22 GMT 44.488811 -93.089905 9,225 86 251 0
2022-05-21 02:41:18 GMT 44.488625 -93.094460 9,225 86 252 -64
2022-05-21 02:41:14 GMT 44.488312 -93.101089 9,225 86 252 0
2022-05-21 02:41:10 GMT 44.488018 -93.108124 9,225 86 252 -64
2022-05-21 02:41:06 GMT 44.487762 -93.113777 9,225 87 259 64
2022-05-21 02:41:03 GMT 44.487411 -93.121124 9,225 86 253 64
2022-05-21 02:40:57 GMT 44.487030 -93.130775 9,225 86 250 64
2022-05-21 02:40:54 GMT 44.486900 -93.133850 9,225 86 250 64
2022-05-21 02:40:51 GMT 44.486710 -93.138229 9,200 86 249 64
2022-05-21 02:40:48 GMT 44.486298 -93.147583 9,200 87 250 64
2022-05-21 02:40:42 GMT 44.486023 -93.155693 9,200 87 251 64
2022-05-21 02:40:38 GMT 44.485840 -93.160530 9,200 87 252 0
2022-05-21 02:40:34 GMT 44.485645 -93.166611 9,200 87 253 -64
2022-05-21 02:40:31 GMT 44.485504 -93.172165 9,200 87 254 0
2022-05-21 02:40:28 GMT 44.485336 -93.177536 9,225 87 254 0
2022-05-21 02:40:24 GMT 44.484924 -93.190742 9,200 87 256 0
2022-05-21 02:40:20 GMT 44.484924 -93.190742 9,200 87 256 0
2022-05-21 02:40:17 GMT 44.484806 -93.194206 9,225 87 256 0
2022-05-21 02:40:14 GMT 44.484619 -93.200844 9,225 87 257 -64
2022-05-21 02:40:10 GMT 44.484482 -93.206535 9,225 87 258 0
2022-05-21 02:40:05 GMT 44.484249 -93.215843 9,225 87 259 64
2022-05-21 02:40:01 GMT 44.484108 -93.220871 9,200 87 259 64
2022-05-21 02:39:57 GMT 44.483829 -93.228912 9,200 87 259 64
2022-05-21 02:39:53 GMT 44.483643 -93.234940 9,200 87 262 0
2022-05-21 02:39:49 GMT 44.483456 -93.242043 9,200 87 265 64
2022-05-21 02:39:45 GMT 44.483318 -93.247200 9,200 87 268 64
2022-05-21 02:39:42 GMT 44.483177 -93.252754 9,200 87 272 64
2022-05-21 02:39:39 GMT 44.483002 -93.259666 9,200 88 284 0
2022-05-21 02:39:36 GMT 44.482864 -93.264313 9,200 88 281 0
2022-05-21 02:39:33 GMT 44.482727 -93.270523 9,200 88 285 0
2022-05-21 02:39:28 GMT 44.482681 -93.279030 9,200 90 291 -64
2022-05-21 02:39:25 GMT 44.482712 -93.284111 9,200 90 294 -64
2022-05-21 02:39:22 GMT 44.482758 -93.290543 9,200 90 297 -64
2022-05-21 02:39:19 GMT 44.482803 -93.294830 9,225 90 302 -64
2022-05-21 02:39:16 GMT 44.482899 -93.303734 9,225 90 306 -64
2022-05-21 02:39:12 GMT 44.482944 -93.309700 9,225 90 309 0
2022-05-21 02:39:08 GMT 44.482990 -93.318939 9,225 90 312 0
2022-05-21 02:39:05 GMT 44.483002 -93.325584 9,225 90 311 0
2022-05-21 02:39:02 GMT 44.483047 -93.330360 9,225 90 311 0
2022-05-21 02:38:55 GMT 44.483036 -93.351097 9,225 89 311 0
2022-05-21 02:38:52 GMT 44.483036 -93.351097 9,225 89 311 0
2022-05-21 02:38:48 GMT 44.483002 -93.356911 9,225 89 311 0
2022-05-21 02:38:45 GMT 44.482956 -93.365410 9,225 89 311 0
2022-05-21 02:38:42 GMT 44.482956 -93.371819 9,225 89 311 0
2022-05-21 02:38:39 GMT 44.482944 -93.376015 9,225 90 311 0
2022-05-21 02:38:34 GMT 44.483086 -93.387672 9,200 93 310 128
2022-05-21 02:38:31 GMT 44.483322 -93.392685 9,200 97 310 0
2022-05-21 02:38:24 GMT 44.485382 -93.406418 9,200 110 309 64
2022-05-21 02:38:21 GMT 44.486763 -93.411858 9,200 120 307 -128
2022-05-21 02:38:17 GMT 44.488716 -93.417686 9,200 120 307 -128
2022-05-21 02:38:14 GMT 44.491745 -93.424660 9,200 125 306 -128
2022-05-21 02:38:10 GMT 44.494770 -93.430077 9,225 134 304 -128
2022-05-21 02:38:06 GMT 44.499847 -93.437218 9,225 143 300 -64
2022-05-21 02:38:03 GMT 44.502777 -93.440460 9,225 144 299 -128
2022-05-21 02:38:00 GMT 44.505203 -93.442711 9,050 150 297 0
2022-05-21 02:37:57 GMT 44.509048 -93.445786 9,225 155 295 64
2022-05-21 02:37:54 GMT 44.512802 -93.448074 9,225 160 293 128
2022-05-21 02:37:50 GMT 44.517700 -93.450233 9,225 169 288 128
2022-05-21 02:37:44 GMT 44.526516 -93.452049 9,200 179 284 128
2022-05-21 02:37:40 GMT 44.531067 -93.451927 9,200 187 279 0
2022-05-21 02:37:35 GMT 44.537704 -93.450363 9,200 196 274 320
2022-05-21 02:37:32 GMT 44.541550 -93.448723 9,150 201 273 768
2022-05-21 02:37:28 GMT 44.545883 -93.446358 9,100 203 272 1024
2022-05-21 02:37:25 GMT 44.548771 -93.444550 9,050 205 272 1088
2022-05-21 02:37:22 GMT 44.552902 -93.441925 8,975 205 272 896
2022-05-21 02:37:19 GMT 44.555798 -93.440063 8,950 205 273 768
2022-05-21 02:37:15 GMT 44.560730 -93.436958 8,900 205 272 640
2022-05-21 02:37:12 GMT 44.564392 -93.434601 8,850 205 271 832
2022-05-21 02:37:09 GMT 44.567715 -93.432487 8,825 205 271 960
2022-05-21 02:37:05 GMT 44.571945 -93.429764 8,750 205 272 1088
2022-05-21 02:37:02 GMT 44.576294 -93.427017 8,675 205 273 1024
2022-05-21 02:36:59 GMT 44.578934 -93.425323 8,650 205 273 960
2022-05-21 02:36:55 GMT 44.583546 -93.422440 8,575 205 273 896
2022-05-21 02:36:51 GMT 44.588154 -93.419495 8,500 205 272 832
2022-05-21 02:36:48 GMT 44.591133 -93.417618 8,475 205 272 832
2022-05-21 02:36:45 GMT 44.595509 -93.414940 8,425 204 272 896
2022-05-21 02:36:39 GMT 44.603142 -93.410248 8,325 204 271 832
2022-05-21 02:36:33 GMT 44.608402 -93.406967 8,275 204 271 832
2022-05-21 02:36:30 GMT 44.612915 -93.404259 8,200 204 271 896
2022-05-21 02:36:27 GMT 44.615803 -93.402481 8,175 204 271 960
2022-05-21 02:36:23 GMT 44.620178 -93.399864 8,125 204 270 1088
2022-05-21 02:36:18 GMT 44.626419 -93.396179 8,000 203 271 1280
2022-05-21 02:36:14 GMT 44.631725 -93.393036 7,900 203 272 1216
2022-05-21 02:36:10 GMT 44.636490 -93.390198 7,825 203 272 1088
2022-05-21 02:36:07 GMT 44.639282 -93.388565 7,775 203 272 1024
2022-05-21 02:36:03 GMT 44.643265 -93.386208 7,725 203 273 1024
2022-05-21 02:35:58 GMT 44.650578 -93.381912 7,625 203 272 960
2022-05-21 02:35:53 GMT 44.655235 -93.379234 7,550 203 271 960
2022-05-21 02:35:47 GMT 44.661983 -93.375282 7,450 203 271 1024
2022-05-21 02:35:43 GMT 44.667664 -93.372017 7,350 203 271 1216
2022-05-21 02:35:40 GMT 44.670132 -93.370659 7,325 203 271 1216
2022-05-21 02:35:36 GMT 44.674667 -93.368095 7,250 202 272 1152
2022-05-21 02:35:32 GMT 44.679565 -93.365280 7,150 202 271 1152
2022-05-21 02:35:28 GMT 44.684967 -93.362274 7,075 203 271 1024
2022-05-21 02:35:22 GMT 44.691589 -93.358536 6,975 203 270 960
2022-05-21 02:35:17 GMT 44.697876 -93.354980 6,900 202 269 1024
2022-05-21 02:35:12 GMT 44.703552 -93.351814 6,800 202 269 1024
2022-05-21 02:35:09 GMT 44.708241 -93.352753 6,300 203 267 576
2022-05-21 02:35:07 GMT 44.710461 -93.351219 6,300 203 267 576
2022-05-21 02:35:06 GMT 44.711571 -93.350456 6,300 203 267 576
2022-05-21 02:35:05 GMT 44.712681 -93.349701 6,300 203 267 576
2022-05-21 02:35:03 GMT 44.714901 -93.348167 6,300 203 267 576
2022-05-21 02:35:02 GMT 44.716011 -93.347412 6,300 203 267 576
2022-05-21 02:35:01 GMT 44.717121 -93.346642 6,300 203 267 576
2022-05-21 02:35:00 GMT 44.719341 -93.345123 6,300 203 267 576
2022-05-21 02:34:58 GMT 44.720451 -93.344353 6,300 203 267 576
2022-05-21 02:34:57 GMT 44.721561 -93.343590 6,300 203 267 576
2022-05-21 02:34:56 GMT 44.723782 -93.342056 6,300 203 267 576
2022-05-21 02:34:54 GMT 44.724892 -93.341301 6,300 203 267 576
2022-05-21 02:34:53 GMT 44.726002 -93.340530 6,300 203 267 576
2022-05-21 02:34:52 GMT 44.728222 -93.339012 6,300 203 267 576
2022-05-21 02:34:50 GMT 44.729321 -93.338242 6,300 203 267 576
2022-05-21 02:34:49 GMT 44.730431 -93.337479 6,300 203 267 576
2022-05-21 02:34:47 GMT 44.732651 -93.335953 6,300 203 267 576
2022-05-21 02:34:46 GMT 44.733761 -93.335190 6,300 203 267 576
2022-05-21 02:34:45 GMT 44.734871 -93.334419 6,300 203 267 576
2022-05-21 02:34:44 GMT 44.735981 -93.333656 6,300 203 267 576
2022-05-21 02:34:43 GMT 44.738201 -93.332130 6,300 203 267 576
2022-05-21 02:34:41 GMT 44.739311 -93.331367 6,300 203 267 576
2022-05-21 02:34:40 GMT 44.740421 -93.330597 6,300 203 267 576
2022-05-21 02:34:39 GMT 44.741531 -93.329842 6,300 203 267 576
2022-05-21 02:34:37 GMT 44.743301 -93.327888 6,200 197 276 576
2022-05-21 02:34:36 GMT 44.744492 -93.327263 6,200 197 276 576
2022-05-21 02:34:34 GMT 44.747669 -93.324043 6,100 189 275 576
2022-05-21 02:34:32 GMT 44.748909 -93.323639 6,100 189 275 576
2022-05-21 02:34:31 GMT 44.750149 -93.323242 6,100 189 275 576
2022-05-21 02:34:30 GMT 44.751400 -93.322838 6,100 189 275 576
2022-05-21 02:34:28 GMT 44.753170 -93.320374 6,100 181 286 576
2022-05-21 02:34:27 GMT 44.754490 -93.320229 6,100 181 286 576
2022-05-21 02:34:25 GMT 44.757130 -93.319946 6,100 181 286 576
2022-05-21 02:34:24 GMT 44.758862 -93.317558 6,000 174 269 -96
2022-05-21 02:34:23 GMT 44.760101 -93.317734 6,000 174 269 -96
2022-05-21 02:34:21 GMT 44.762581 -93.318069 6,000 174 269 -96
2022-05-21 02:34:20 GMT 44.763821 -93.318237 6,000 174 269 -96
2022-05-21 02:34:19 GMT 44.765419 -93.317978 6,000 173 262 -96
2022-05-21 02:34:17 GMT 44.767830 -93.318390 6,000 173 262 -96
2022-05-21 02:34:16 GMT 44.769032 -93.318588 6,000 173 262 -96
2022-05-21 02:34:15 GMT 44.770031 -93.318581 6,000 172 268 800
2022-05-21 02:34:13 GMT 44.772491 -93.319023 6,000 172 268 800
2022-05-21 02:34:12 GMT 44.773720 -93.319237 6,000 172 268 800
2022-05-21 02:34:11 GMT 44.776718 -93.320000 6,000 172 252 800
2022-05-21 02:34:09 GMT 44.777882 -93.320198 6,000 172 252 800
2022-05-21 02:34:08 GMT 44.779041 -93.320396 6,000 172 252 800
2022-05-21 02:34:07 GMT 44.780201 -93.320602 6,000 172 252 800
2022-05-21 02:34:05 GMT 44.782379 -93.320717 6,000 172 258 800
2022-05-21 02:34:04 GMT 44.783562 -93.320953 6,000 172 258 800
2022-05-21 02:34:03 GMT 44.784752 -93.321182 6,000 172 258 800
2022-05-21 02:34:02 GMT 44.785931 -93.321404 6,000 172 258 800
2022-05-21 02:34:01 GMT 44.787182 -93.321579 5,900 172 253 -224
2022-05-21 02:33:59 GMT 44.789501 -93.322037 5,900 172 253 -224
2022-05-21 02:33:58 GMT 44.790661 -93.322273 5,900 172 253 -224
2022-05-21 02:33:57 GMT 44.791821 -93.322502 5,900 172 253 -224
2022-05-21 02:33:55 GMT 44.794220 -93.323059 5,900 172 247 -224
2022-05-21 02:33:54 GMT 44.795349 -93.323280 5,900 172 247 -224
2022-05-21 02:33:53 GMT 44.796490 -93.323502 5,900 172 247 -224
2022-05-21 02:33:52 GMT 44.798092 -93.323837 5,900 172 232 1888
2022-05-21 02:33:50 GMT 44.800209 -93.324249 5,900 172 232 1888
2022-05-21 02:33:49 GMT 44.801281 -93.324463 5,900 172 232 1888
2022-05-21 02:33:48 GMT 44.802341 -93.324669 5,900 172 232 1888
2022-05-21 02:33:46 GMT 44.804749 -93.325081 5,900 171 227 1888
2022-05-21 02:33:45 GMT 44.805790 -93.325287 5,900 171 227 1888
2022-05-21 02:33:44 GMT 44.806831 -93.325500 5,900 171 227 1888
2022-05-21 02:33:43 GMT 44.807911 -93.325752 5,900 171 226 1888
2022-05-21 02:33:41 GMT 44.809978 -93.326180 5,900 171 226 1888
2022-05-21 02:33:40 GMT 44.811020 -93.326393 5,900 171 226 1888
2022-05-21 02:33:39 GMT 44.812050 -93.326599 5,900 171 226 1888
2022-05-21 02:33:37 GMT 44.814201 -93.326981 5,800 171 225 1888
2022-05-21 02:33:36 GMT 44.815231 -93.327202 5,800 171 225 1888
2022-05-21 02:33:35 GMT 44.816261 -93.327408 5,800 171 225 1888
2022-05-21 02:33:34 GMT 44.817280 -93.327629 5,800 171 225 1888
2022-05-21 02:33:32 GMT 44.819408 -93.328056 5,700 171 223 1888
2022-05-21 02:33:31 GMT 44.820431 -93.328270 5,700 171 223 1888
2022-05-21 02:33:30 GMT 44.822571 -93.328712 5,600 171 222 1888
2022-05-21 02:33:28 GMT 44.823589 -93.328934 5,600 171 222 1888
2022-05-21 02:33:27 GMT 44.825619 -93.329369 5,600 171 222 1888
2022-05-21 02:33:25 GMT 44.826630 -93.329590 5,600 171 222 3648
2022-05-21 02:33:24 GMT 44.827629 -93.329987 5,300 171 222 3648
2022-05-21 02:33:23 GMT 44.828651 -93.330200 5,300 171 222 3648
2022-05-21 02:33:21 GMT 44.830681 -93.330597 5,300 171 222 3648
2022-05-21 02:33:20 GMT 44.831551 -93.330269 5,300 171 220 3648
2022-05-21 02:33:19 GMT 44.832561 -93.330482 5,300 171 220 3648
2022-05-21 02:33:17 GMT 44.834579 -93.330879 5,300 171 220 3648
2022-05-21 02:33:16 GMT 44.835590 -93.331093 5,300 171 220 3648
2022-05-21 02:33:15 GMT 44.837589 -93.331390 5,200 170 221 3648
2022-05-21 02:33:13 GMT 44.838600 -93.331612 5,200 170 221 3648
2022-05-21 02:33:12 GMT 44.839611 -93.331833 5,200 170 221 3648
2022-05-21 02:33:11 GMT 44.841530 -93.331627 5,100 168 225 3648
2022-05-21 02:33:09 GMT 44.842548 -93.331917 5,100 168 225 3648
2022-05-21 02:33:07 GMT 44.844582 -93.332497 5,100 168 225 3648
2022-05-21 02:33:06 GMT 44.845360 -93.332108 5,000 169 231 3648
2022-05-21 02:33:05 GMT 44.847439 -93.332771 5,000 169 231 3648
2022-05-21 02:33:03 GMT 44.848480 -93.333092 5,000 169 231 3648
2022-05-21 02:33:02 GMT 44.849522 -93.333420 5,000 169 231 3648
2022-05-21 02:33:01 GMT 44.850422 -93.333344 4,800 173 230 3648
2022-05-21 02:33:00 GMT 44.852520 -93.333908 4,800 173 230 3648
2022-05-21 02:32:58 GMT 44.853561 -93.334190 4,800 173 230 3648
2022-05-21 02:32:57 GMT 44.854271 -93.335381 4,700 183 231 3648
2022-05-21 02:32:56 GMT 44.856411 -93.335457 4,700 183 231 3648
2022-05-21 02:32:54 GMT 44.857479 -93.335510 4,700 183 231 3648
2022-05-21 02:32:53 GMT 44.858540 -93.335548 4,700 183 231 3648
2022-05-21 02:32:52 GMT 44.859379 -93.336884 4,400 194 232 3648
2022-05-21 02:32:50 GMT 44.861500 -93.336349 4,400 194 232 3648
2022-05-21 02:32:49 GMT 44.862560 -93.336090 4,400 194 232 3648
2022-05-21 02:32:48 GMT 44.863819 -93.336929 4,400 204 224 3648
2022-05-21 02:32:46 GMT 44.865768 -93.335938 4,400 204 224 3648
2022-05-21 02:32:45 GMT 44.866749 -93.335449 4,400 204 224 3648
2022-05-21 02:32:44 GMT 44.867722 -93.334953 4,400 204 224 3648
2022-05-21 02:32:43 GMT 44.869732 -93.334709 4,100 213 219 3648
2022-05-21 02:32:41 GMT 44.870609 -93.334007 4,100 213 219 3648
2022-05-21 02:32:40 GMT 44.871498 -93.333298 4,100 213 219 3648
2022-05-21 02:32:39 GMT 44.873779 -93.332314 4,100 222 201 3648
2022-05-21 02:32:37 GMT 44.874500 -93.331482 4,100 222 201 3648
2022-05-21 02:32:36 GMT 44.875221 -93.330643 4,100 222 201 3648
2022-05-21 02:32:35 GMT 44.877048 -93.329369 3,975 229 193 3648
2022-05-21 02:32:33 GMT 44.877628 -93.328423 3,975 229 193 3648
2022-05-21 02:32:32 GMT 44.878208 -93.327469 3,975 229 193 3648
2022-05-21 02:32:31 GMT 44.878792 -93.326523 3,975 229 193 3648
2022-05-21 02:32:29 GMT 44.880070 -93.325172 3,900 236 201 3648
2022-05-21 02:32:28 GMT 44.880718 -93.324112 3,900 239 197 3648
2022-05-21 02:32:27 GMT 44.881191 -93.322998 3,900 241 196 3648
2022-05-21 02:32:25 GMT 44.882210 -93.320969 3,825 247 199 3648
2022-05-21 02:32:24 GMT 44.882599 -93.319778 3,825 248 198 -96
2022-05-21 02:32:23 GMT 44.883011 -93.318604 3,700 249 197 -96
2022-05-21 02:32:21 GMT 44.883671 -93.316162 3,700 251 194 -96
2022-05-21 02:32:20 GMT 44.883961 -93.315018 3,500 251 196 -96
2022-05-21 02:32:19 GMT 44.884220 -93.313873 3,500 251 201 -96
2022-05-21 02:32:18 GMT 44.884850 -93.311310 3,500 252 195 -96
2022-05-21 02:32:16 GMT 44.885109 -93.310150 3,500 252 197 -96
2022-05-21 02:32:15 GMT 44.885380 -93.308952 3,500 252 199 -96
2022-05-21 02:32:13 GMT 44.885948 -93.306419 3,500 252 194 -96
2022-05-21 02:32:12 GMT 44.886189 -93.305283 3,500 252 199 -96
2022-05-21 02:32:11 GMT 44.886719 -93.302803 3,450 252 197 -96
2022-05-21 02:32:09 GMT 44.887001 -93.301552 3,450 252 195 -96
2022-05-21 02:32:08 GMT 44.887280 -93.300293 3,450 252 191 -96
2022-05-21 02:32:07 GMT 44.887810 -93.297958 3,425 252 191 -96
2022-05-21 02:32:05 GMT 44.888111 -93.296761 3,425 253 189 -96
2022-05-21 02:32:04 GMT 44.888378 -93.295464 3,425 253 181 -96
2022-05-21 02:32:02 GMT 44.888870 -93.293266 3,425 253 185 0
2022-05-21 02:32:01 GMT 44.889099 -93.292122 3,425 252 185 0
2022-05-21 02:32:00 GMT 44.889351 -93.290977 3,400 252 184 0
2022-05-21 02:31:59 GMT 44.889870 -93.288696 3,400 252 180 0
2022-05-21 02:31:57 GMT 44.890110 -93.287598 3,400 252 180 -352
2022-05-21 02:31:56 GMT 44.890369 -93.286438 3,400 252 176 -352
2022-05-21 02:31:55 GMT 44.890869 -93.284081 3,400 251 162 -32
2022-05-21 02:31:53 GMT 44.891090 -93.283180 3,400 251 170 -32
2022-05-21 02:31:51 GMT 44.891560 -93.281097 3,400 251 168 -32
2022-05-21 02:31:50 GMT 44.891811 -93.280060 3,400 251 166 -32
2022-05-21 02:31:49 GMT 44.892029 -93.278976 3,375 250 164 -32
2022-05-21 02:31:48 GMT 44.892551 -93.276993 3,400 251 161 2880
2022-05-21 02:31:46 GMT 44.892799 -93.275940 3,400 251 156 2880
2022-05-21 02:31:45 GMT 44.893021 -93.274940 3,400 251 154 2880
2022-05-21 02:31:43 GMT 44.893520 -93.273033 3,300 252 150 2880
2022-05-21 02:31:42 GMT 44.893742 -93.272087 3,300 253 148 2880
2022-05-21 02:31:41 GMT 44.893871 -93.271187 3,300 250 152 2880
2022-05-21 02:31:39 GMT 44.894348 -93.269310 3,275 251 149 2880
2022-05-21 02:31:38 GMT 44.894569 -93.268372 3,200 251 148 2880
2022-05-21 02:31:37 GMT 44.894779 -93.267502 3,200 251 150 2880
2022-05-21 02:31:36 GMT 44.895012 -93.266563 3,200 252 148 2880
2022-05-21 02:31:34 GMT 44.895439 -93.264709 3,000 252 147 2880
2022-05-21 02:31:33 GMT 44.895672 -93.263832 3,000 253 148 2880
2022-05-21 02:31:32 GMT 44.895859 -93.262878 3,000 253 146 2880
2022-05-21 02:31:31 GMT 44.896221 -93.261093 3,000 251 148 2880
2022-05-21 02:31:29 GMT 44.896439 -93.260147 3,000 251 145 2880
2022-05-21 02:31:28 GMT 44.896858 -93.258347 2,900 251 147 2880
2022-05-21 02:31:26 GMT 44.897049 -93.257423 2,900 251 147 2880
2022-05-21 02:31:25 GMT 44.897240 -93.256531 2,775 251 149 2880
2022-05-21 02:31:24 GMT 44.897430 -93.255577 2,775 251 148 1056
2022-05-21 02:31:22 GMT 44.897839 -93.253761 2,775 252 150 1056
2022-05-21 02:31:21 GMT 44.898029 -93.252892 2,600 253 153 -480
2022-05-21 02:31:20 GMT 44.898220 -93.251961 2,600 254 154 -480
2022-05-21 02:31:18 GMT 44.898609 -93.250076 2,600 257 154 0
2022-05-21 02:31:17 GMT 44.898781 -93.249069 2,600 258 151 0
2022-05-21 02:31:16 GMT 44.898891 -93.248131 2,500 259 151 0
2022-05-21 02:31:15 GMT 44.899132 -93.246193 2,500 263 147 0
2022-05-21 02:31:13 GMT 44.899250 -93.245270 2,500 266 147 0
2022-05-21 02:31:12 GMT 44.899281 -93.244377 2,425 267 149 0
2022-05-21 02:31:11 GMT 44.899349 -93.242462 2,425 273 146 0
2022-05-21 02:31:09 GMT 44.899342 -93.241524 2,425 275 146 0
2022-05-21 02:31:08 GMT 44.899330 -93.240479 2,400 280 139 0
2022-05-21 02:31:07 GMT 44.899151 -93.238747 2,325 285 141 0
2022-05-21 02:31:05 GMT 44.899029 -93.237862 2,200 288 141 0
2022-05-21 02:31:04 GMT 44.898891 -93.236992 2,200 291 142 0
2022-05-21 02:31:03 GMT 44.898670 -93.236130 2,200 292 142 0
2022-05-21 02:31:02 GMT 44.898190 -93.234421 2,000 295 143 0
2022-05-21 02:31:00 GMT 44.897881 -93.233498 2,000 296 136 0
2022-05-21 02:30:59 GMT 44.897652 -93.232613 2,000 299 132 0
2022-05-21 02:30:57 GMT 44.897049 -93.231216 1,950 298 141 0
2022-05-21 02:30:56 GMT 44.896679 -93.230362 1,900 296 136 0
2022-05-21 02:30:55 GMT 44.896179 -93.228882 1,825 298 142 0
2022-05-21 02:30:53 GMT 44.895882 -93.228043 1,775 300 139 0
2022-05-21 02:30:52 GMT 44.895561 -93.227249 1,650 300 140 0
2022-05-21 02:30:50 GMT 44.894920 -93.225693 1,650 300 140 0
2022-05-21 02:30:49 GMT 44.894600 -93.224922 1,525 300 142 0
2022-05-21 02:30:48 GMT 44.894260 -93.224129 1,525 299 144 0
2022-05-21 02:30:46 GMT 44.893608 -93.222511 1,525 301 138 0
2022-05-21 02:30:45 GMT 44.893280 -93.221764 1,475 300 142 0
2022-05-21 02:30:44 GMT 44.892941 -93.220963 1,150 300 144 0
2022-05-21 02:30:43 GMT 44.892601 -93.220154 1,150 300 142 0
2022-05-21 02:30:41 GMT 44.891941 -93.218567 1,150 301 144 0
2022-05-21 02:30:40 GMT 44.891590 -93.217751 1,150 301 143 0
2022-05-21 02:30:39 GMT 44.891239 -93.216957 1,150 301 145 0
2022-05-21 02:30:37 GMT 44.890549 -93.215340 1,150 302 145 0
2022-05-21 02:30:36 GMT 44.890190 -93.214546 1,125 301 145 0
2022-05-21 02:30:35 GMT 44.889839 -93.213737 1,075 302 147 0
2022-05-21 02:30:33 GMT 44.889149 -93.212173 1,050 302 150 0
2022-05-21 02:30:32 GMT 44.888779 -93.211388 1,025 301 150 0
2022-05-21 02:30:31 GMT 44.888420 -93.210571 1,025 301 148 0
2022-05-21 02:30:30 GMT 44.887669 -93.208923 1,025 300 138 0
2022-05-21 02:30:28 GMT 44.887360 -93.208130 1,025 300 134 0
2022-05-21 02:30:27 GMT 44.887032 -93.207359 1,025 300 130 0
2022-05-21 02:30:26 GMT 44.886429 -93.205910 1,025 300 127 0
2022-05-21 02:30:24 GMT 44.886120 -93.205223 1,025 300 125 0
2022-05-21 02:30:23 GMT 44.885811 -93.204514 1,025 300 120 0
2022-05-21 02:30:21 GMT 44.885269 -93.203171 1,025 301 112 0
2022-05-21 02:30:20 GMT 44.884991 -93.202553 1,025 301 108
2022-05-21 02:30:18 GMT 44.884472 -93.201347 0 302 101
2022-05-21 02:30:16 GMT 44.883968 -93.200241 0 301 92
2022-05-21 02:30:15 GMT 44.883770 -93.199707 0 303 89
2022-05-21 02:30:14 GMT 44.883541 -93.199226 0 302 85
2022-05-21 02:30:13 GMT 44.883099 -93.198334 0 300 76
2022-05-21 02:30:11 GMT 44.882889 -93.197899 0 299 70
2022-05-21 02:30:10 GMT 44.882702 -93.197472 0 298 63
2022-05-21 02:30:08 GMT 44.882469 -93.196732 0 303 55
2022-05-21 02:30:07 GMT 44.882301 -93.196419 0 301 50
2022-05-21 02:30:06 GMT 44.882141 -93.196121 0 298 44
2022-05-21 02:30:05 GMT 44.882019 -93.195847 0 296 39
2022-05-21 02:30:03 GMT 44.881851 -93.195381 0 297 32
2022-05-21 02:30:02 GMT 44.881771 -93.195160 0 297 26
2022-05-21 02:30:01 GMT 44.881618 -93.194801 0 296 16
2022-05-21 02:29:59 GMT 44.881580 -93.194702 0 295 15
2022-05-21 02:29:58 GMT 44.881519 -93.194633 0 288 14
2022-05-21 02:29:57 GMT 44.881489 -93.194519 0 289 11
2022-05-21 02:29:56 GMT 44.881458 -93.194443 0 294 9
2022-05-21 02:29:55 GMT 44.881439 -93.194344 0 320 9
2022-05-21 02:29:53 GMT 44.881432 -93.194283 0 342 8
2022-05-21 02:29:52 GMT 44.881378 -93.194183 0 15 8
2022-05-21 02:29:50 GMT 44.881359 -93.194138 0 26 12
2022-05-21 02:29:49 GMT 44.881310 -93.194130 0 33 13
2022-05-21 02:29:47 GMT 44.881199 -93.194260 0 27 11
2022-05-21 02:29:46 GMT 44.881119 -93.194290 0 32 14
2022-05-21 02:29:44 GMT 44.881062 -93.194351 0 32 12
2022-05-21 02:29:43 GMT 44.881031 -93.194389 0 30 13
2022-05-21 02:29:41 GMT 44.880901 -93.194473 0 32 10
2022-05-21 02:29:40 GMT 44.880852 -93.194519 0 30 8
2022-05-21 02:29:39 GMT 44.880840 -93.194557 0 25 9
2022-05-21 02:29:38 GMT 44.880779 -93.194618 0 23 7
2022-05-21 02:29:36 GMT 44.880699 -93.194656 0 41 4
2022-05-21 02:29:35 GMT 44.880680 -93.194633 0 54 6
2022-05-21 02:29:34 GMT 44.880638 -93.194641 0 50 5
2022-05-21 02:29:32 GMT 44.880669 -93.194733 0 37 7
2022-05-21 02:29:31 GMT 44.880619 -93.194710 0 55 7
2022-05-21 02:29:29 GMT 44.880550 -93.194748 0 77 6
2022-05-21 02:29:27 GMT 44.880531 -93.194832 0 86 5
2022-05-21 02:29:26 GMT 44.880531 -93.194847 0 87 6
2022-05-21 02:29:25 GMT 44.880508 -93.194946 0 101 5
2022-05-21 02:29:23 GMT 44.880520 -93.194977 0 106 5
2022-05-21 02:29:22 GMT 44.880508 -93.195007 0 98 4
2022-05-21 02:29:20 GMT 44.880520 -93.195038 0 104 5
2022-05-21 02:29:19 GMT 44.880520 -93.195068 0 106 6
2022-05-21 02:29:18 GMT 44.880520 -93.195107 0 114 5
2022-05-21 02:29:17 GMT 44.880539 -93.195160 0 109 7
2022-05-21 02:29:15 GMT 44.880562 -93.195213 0 112 6
2022-05-21 02:29:14 GMT 44.880550 -93.195267 0 115 4
2022-05-21 02:29:12 GMT 44.880569 -93.195320 0 112 4
2022-05-21 02:29:11 GMT 44.880581 -93.195320 0 112 6
2022-05-21 02:29:10 GMT 44.880589 -93.195351 0 111 6
2022-05-21 02:29:08 GMT 44.880611 -93.195412 0 108 6
2022-05-21 02:29:07 GMT 44.880600 -93.195442 0 119 7
2022-05-21 02:29:06 GMT 44.880630 -93.195488 0 120 8
2022-05-21 02:29:04 GMT 44.880650 -93.195549 0 127 7
2022-05-21 02:29:03 GMT 44.880638 -93.195610 0 128 7
2022-05-21 02:29:02 GMT 44.880692 -93.195648 0 115 5
2022-05-21 02:29:01 GMT 44.880711 -93.195671 0 114 6
2022-05-21 02:28:59 GMT 44.880749 -93.195747 0 111 4
2022-05-21 02:28:57 GMT 44.880730 -93.195801 0 127 4
2022-05-21 02:28:56 GMT 44.880760 -93.195808 0 124 5
2022-05-21 02:28:55 GMT 44.880741 -93.195847 0 134 6
2022-05-21 02:28:54 GMT 44.880772 -93.195923 0 142 6
2022-05-21 02:28:52 GMT 44.880791 -93.195953 0 139 6
2022-05-21 02:28:51 GMT 44.880829 -93.195961 0 113 5
2022-05-21 02:28:50 GMT 44.880878 -93.195961 0 99 5
2022-05-21 02:28:48 GMT 44.880859 -93.196022 0 126 7
2022-05-21 02:28:47 GMT 44.880852 -93.196083 0 131 7
2022-05-21 02:28:46 GMT 44.880871 -93.196121 0 126 7
2022-05-21 02:28:44 GMT 44.880939 -93.196167 0 114 6
2022-05-21 02:28:43 GMT 44.880932 -93.196182 0 113 8
2022-05-21 02:28:42 GMT 44.880951 -93.196259 0 122 9
2022-05-21 02:28:40 GMT 44.880970 -93.196327 0 119 8
2022-05-21 02:28:39 GMT 44.881001 -93.196358 0 118 8
2022-05-21 02:28:38 GMT 44.881008 -93.196411 0 124 9
2022-05-21 02:28:36 GMT 44.881062 -93.196510 0 118 8
2022-05-21 02:28:35 GMT 44.881081 -93.196571 0 121 7
2022-05-21 02:28:34 GMT 44.881088 -93.196602 0 121 7
2022-05-21 02:28:33 GMT 44.881100 -93.196617 0 121 9
2022-05-21 02:28:31 GMT 44.881161 -93.196716 0 113 7
2022-05-21 02:28:30 GMT 44.881191 -93.196838 0 119 4
2022-05-21 02:28:28 GMT 44.881191 -93.196854 0 122 5
2022-05-21 02:28:27 GMT 44.881199 -93.196861 0 119 7
2022-05-21 02:28:26 GMT 44.881222 -93.196907 0 121 7
2022-05-21 02:28:25 GMT 44.881248 -93.197006 0 132 5
2022-05-21 02:28:24 GMT 44.881271 -93.197029 0 125 4
2022-05-21 02:28:22 GMT 44.881271 -93.197060 0 130 5
2022-05-21 02:28:21 GMT 44.881279 -93.197083 0 128 5
2022-05-21 02:28:19 GMT 44.881321 -93.197128 0 126 4
2022-05-21 02:28:18 GMT 44.881340 -93.197144 0 118 5
2022-05-21 02:28:17 GMT 44.881359 -93.197166 0 115 5
2022-05-21 02:28:15 GMT 44.881371 -93.197250 0 115 4
2022-05-21 02:28:14 GMT 44.881401 -93.197258 0 109 5
2022-05-21 02:28:13 GMT 44.881390 -93.197281 0 125 5
2022-05-21 02:28:12 GMT 44.881409 -93.197342 0 125 6
2022-05-21 02:28:10 GMT 44.881432 -93.197380 0 120 5
2022-05-21 02:28:09 GMT 44.881458 -93.197411 0 113 4
2022-05-21 02:28:08 GMT 44.881458 -93.197441 0 118 4
2022-05-21 02:28:06 GMT 44.881481 -93.197479 0 112 3
2022-05-21 02:28:05 GMT 44.881500 -93.197487 0 110 4
2022-05-21 02:28:03 GMT 44.881489 -93.197548 0 125 4
2022-05-21 02:28:02 GMT 44.881489 -93.197578 0 133 3
2022-05-21 02:28:00 GMT 44.881512 -93.197609 0 134 3
2022-05-21 02:27:59 GMT 44.881500 -93.197662 0 107 5
2022-05-21 02:27:58 GMT 44.881550 -93.197639 0 104 3
2022-05-21 02:27:57 GMT 44.881561 -93.197670 0 107 3
2022-05-21 02:27:55 GMT 44.881592 -93.197670 0 107 4
2022-05-21 02:27:54 GMT 44.881569 -93.197708 0 126 3
2022-05-21 02:27:53 GMT 44.881550 -93.197739 0 134 6
2022-05-21 02:27:51 GMT 44.881569 -93.197762 0 134 6
2022-05-21 02:27:50 GMT 44.881599 -93.197853 0 122 5
2022-05-21 02:27:48 GMT 44.881672 -93.197861 0 122 2
2022-05-21 02:27:47 GMT 44.881672 -93.197891 0 104 3
2022-05-21 02:27:45 GMT 44.881691 -93.197891 0 103 2
2022-05-21 02:27:44 GMT 44.881710 -93.197868 0 103 4
2022-05-21 02:27:43 GMT 44.881691 -93.197899 0 111 6
2022-05-21 02:27:41 GMT 44.881691 -93.197983 0 124 5
2022-05-21 02:27:40 GMT 44.881710 -93.198029 0 120 3
2022-05-21 02:27:39 GMT 44.881729 -93.198021 0 119 3
2022-05-21 02:27:37 GMT 44.881741 -93.198067 0 115 2
2022-05-21 02:27:36 GMT 44.881748 -93.198082 0 114 2
2022-05-21 02:27:35 GMT 44.881779 -93.198097 0 113 1
2022-05-21 02:27:33 GMT 44.881790 -93.198112 0 114 1
2022-05-21 02:27:32 GMT 44.881779 -93.198090 0 117 3
2022-05-21 02:27:30 GMT 44.881760 -93.198128 0 120 3
2022-05-21 02:27:29 GMT 44.881771 -93.198151 0 120 3
2022-05-21 02:27:28 GMT 44.881771 -93.198189 0 120 2
2022-05-21 02:27:27 GMT 44.881779 -93.198174 0 119 3
2022-05-21 02:27:25 GMT 44.881790 -93.198196 0 119 3
2022-05-21 02:27:24 GMT 44.881802 -93.198196 0 118 3
2022-05-21 02:27:22 GMT 44.881828 -93.198257 0 117 1
2022-05-21 02:27:21 GMT 44.881859 -93.198257 0 118 3
2022-05-21 02:27:20 GMT 44.881821 -93.198257 0 124 2
2022-05-21 02:27:18 GMT 44.881809 -93.198273 0 127 3
2022-05-21 02:27:16 GMT 44.881828 -93.198318 0 127 0
2022-05-21 02:27:15 GMT 44.881809 -93.198318 0 127 2
2022-05-21 02:27:14 GMT 44.881821 -93.198311 0 126 3
2022-05-21 02:27:13 GMT 44.881821 -93.198334 0 128 2
2022-05-21 02:27:11 GMT 44.881828 -93.198334 0 126 5
2022-05-21 02:27:10 GMT 44.881851 -93.198380 0 128 3
2022-05-21 02:27:09 GMT 44.881882 -93.198380 0 130 3
2022-05-21 02:27:08 GMT 44.881851 -93.198418 0 134 4
2022-05-21 02:27:07 GMT 44.881859 -93.198441 0 125 3
2022-05-21 02:27:05 GMT 44.881882 -93.198471 0 119 3
2022-05-21 02:27:04 GMT 44.881889 -93.198479 0 113 3
2022-05-21 02:27:02 GMT 44.881920 -93.198486 0 122 3
2022-05-21 02:27:01 GMT 44.881908 -93.198509 0 126 5
2022-05-21 02:27:00 GMT 44.881931 -93.198547 0 134 3
2022-05-21 02:26:58 GMT 44.881939 -93.198601 0 132 3
2022-05-21 02:26:57 GMT 44.881962 -93.198570 0 127 4
2022-05-21 02:26:56 GMT 44.881981 -93.198608 0 138 3
2022-05-21 02:26:54 GMT 44.881989 -93.198647 0 139 0
2022-05-21 02:26:52 GMT 44.881989 -93.198677 0 140 2
2022-05-21 02:26:51 GMT 44.881989 -93.198700 0 141 2
2022-05-21 02:26:49 GMT 44.881981 -93.198708 0 134 6
2022-05-21 02:26:48 GMT 44.882030 -93.198708 0 121 6
2022-05-21 02:26:47 GMT 44.882038 -93.198730 0 120 7
2022-05-21 02:26:46 GMT 44.882092 -93.198807 0 113 9
2022-05-21 02:26:44 GMT 44.882092 -93.198853 0 114 11
2022-05-21 02:26:43 GMT 44.882118 -93.198898 0 101 10
2022-05-21 02:26:41 GMT 44.882160 -93.199028 0 86 9
2022-05-21 02:26:40 GMT 44.882179 -93.199081 0 81 9
2022-05-21 02:26:39 GMT 44.882160 -93.199158 0 78 8
2022-05-21 02:26:37 GMT 44.882179 -93.199249 0 65 10
2022-05-21 02:26:36 GMT 44.882160 -93.199333 0 61 9
2022-05-21 02:26:35 GMT 44.882172 -93.199471 0 41 9
2022-05-21 02:26:33 GMT 44.882141 -93.199471 0 45 11
2022-05-21 02:26:32 GMT 44.882099 -93.199516 0 46 11
2022-05-21 02:26:31 GMT 44.882069 -93.199593 0 37 10
2022-05-21 02:26:29 GMT 44.881989 -93.199661 0 50 9
2022-05-21 02:26:28 GMT 44.881939 -93.199707 0 40 7
2022-05-21 02:26:26 GMT 44.881939 -93.199799 0 23 7
2022-05-21 02:26:25 GMT 44.881920 -93.199821 0 20 8
2022-05-21 02:26:24 GMT 44.881920 -93.199852 0 15 10
2022-05-21 02:26:23 GMT 44.881889 -93.199883 0 18 12
2022-05-21 02:26:22 GMT 44.881729 -93.199921 0 61 5
2022-05-21 02:26:20 GMT 44.881721 -93.199921 0 90 4
2022-05-21 02:26:19 GMT 44.881680 -93.199913 0 129 3
2022-05-21 02:26:18 GMT 44.881592 -93.200020 0 133 2
2022-05-21 02:26:16 GMT 44.881580 -93.200012 0 136 2
2022-05-21 02:26:15 GMT 44.881538 -93.200111 0 137 1
2022-05-21 02:26:14 GMT 44.881481 -93.200104 0 140 0
2022-05-21 02:26:12 GMT 44.881481 -93.200104 0 140 0
2022-05-21 02:26:09 GMT 44.881458 -93.200142 0 140 0
2022-05-21 02:26:07 GMT 44.881432 -93.200142 0 140 0
2022-05-21 02:26:04 GMT 44.881470 -93.200127 0 140 0
2022-05-21 02:26:03 GMT 44.881458 -93.200127 0 140 0
2022-05-21 02:26:01 GMT 44.881481 -93.200127 0 140 0
2022-05-21 02:25:59 GMT 44.881470 -93.200119 0 140 0
2022-05-21 02:25:57 GMT 44.881489 -93.200119 0 140 0
2022-05-21 02:25:56 GMT 44.881512 -93.200111 0 140 0
2022-05-21 02:25:55 GMT 44.881519 -93.200111 0 140 0
2022-05-21 02:25:53 GMT 44.881519 -93.200127 0 140 1
2022-05-21 02:25:52 GMT 44.881519 -93.200111 0 136 0
2022-05-21 02:25:51 GMT 44.881512 -93.200089 0 134 0
2022-05-21 02:25:48 GMT 44.881512 -93.200081 0 134 2
2022-05-21 02:25:46 GMT 44.881538 -93.200127 0 130 2
2022-05-21 02:25:45 GMT 44.881550 -93.200111 0 130 2
2022-05-21 02:25:44 GMT 44.881519 -93.200081 0 129 0
2022-05-21 02:25:42 GMT 44.881519 -93.200043 0 129 2
2022-05-21 02:25:40 GMT 44.881519 -93.200058 0 132 2
2022-05-21 02:25:38 GMT 44.881512 -93.200058 0 132 2
2022-05-21 02:25:37 GMT 44.881489 -93.200119 0 132 1
2022-05-21 02:25:35 GMT 44.881470 -93.200081 0 131 1
2022-05-21 02:25:34 GMT 44.881470 -93.200104 0 130 2
2022-05-21 02:25:33 GMT 44.881458 -93.200089 0 129 3
2022-05-21 02:25:32 GMT 44.881519 -93.200058 0 131 3
2022-05-21 02:25:30 GMT 44.881512 -93.200119 0 131 0
2022-05-21 02:25:29 GMT 44.881500 -93.200142 0 131 0
2022-05-21 02:25:27 GMT 44.881451 -93.200172 0 131 3
2022-05-21 02:25:26 GMT 44.881470 -93.200073 0 132 4
2022-05-21 02:25:25 GMT 44.881432 -93.200111 0 153 5

Making use of Plane Finder data

You are free to use the raw flight data, aircraft information and images provided in this report for your own purposes provided the data is correctly attributed to Plane Finder. We ask that you please credit Plane Finder and link to planefinder.net in close proximity to the content.

Optionally one of the following logos (no smaller then 150x24px) can be used and must link to planefinder.net

Embedding the Plane Finder map

You are welcome to embed the Plane Finder playback map on your website to offer visitors a more interactive experience. We suggest using the following HTML code:

<iframe src="//planefinder.net/data/report/DL4681-N8903A-7700-squawk-2022-05-21/map" width="800" height="600" seamless="seamless"></iframe>

Where our data comes from

Plane Finder has a global network of data feeds and antenna radars that receive data broadcast directly from aircraft. The primary technologies used are ADS-B and MLAT. We also show feeds from the FAA and a FLARM glider feed.

Click here to find out more about the Plane Finder network.

How we collect our data